Observation data for Colorado City on 01/19/2019      Previous  Date  Next       Current Mesonet Observations  Soil Data  Daily Summary Page  Observations in Plain Language
KCO2 190600Z 33022KT 06/M02 A3002 RMK A01 T00591023  RH  056%=      5-min Rain = 0
KCO2 190601Z 33021KT 06/M02 A3002 RMK A01 T00581023  RH  056%=      5-min Rain = 0
KCO2 190602Z 33022G28KT 06/M02 A3002 RMK A01 T00591022  RH  056%=      5-min Rain = 0
KCO2 190603Z 33020G25KT 06/M02 A3002 RMK A01 T00581022  RH  056%=      5-min Rain = 0
KCO2 190604Z 33022KT 06/M02 A3002 RMK A01 T00591022  RH  056%=      5-min Rain = 0
KCO2 190605Z 33023G29KT 06/M02 A3002 RMK A01 T00591022  RH  056%=      5-min Rain = 0
KCO2 190606Z 33022G27KT 06/M02 A3002 RMK A01 T00591022  RH  056%=      5-min Rain = 0
KCO2 190607Z 33020G25KT 06/M02 A3002 RMK A01 T00591022  RH  056%=      5-min Rain = 0
KCO2 190608Z 33018KT 06/M02 A3002 RMK A01 T00591022  RH  056%=      5-min Rain = 0
KCO2 190609Z 34018G24KT 06/M02 A3002 RMK A01 T00591022  RH  056%=      5-min Rain = 0
KCO2 190610Z 33020G26KT 06/M02 A3002 RMK A01 T00581022  RH  056%=      5-min Rain = 0
KCO2 190611Z 33021G26KT 06/M02 A3002 RMK A01 T00581022  RH  056%=      5-min Rain = 0
KCO2 190612Z 33018KT 06/M02 A3002 RMK A01 T00581022  RH  056%=      5-min Rain = 0
KCO2 190613Z 34018G26KT 06/M02 A3002 RMK A01 T00581022  RH  056%=      5-min Rain = 0
KCO2 190614Z 33025G33KT 06/M02 A3002 RMK A01 T00591023  RH  056%=      5-min Rain = 0
KCO2 190615Z 33027G34KT 06/M02 A3002 RMK A01 T00581024  RH  055%=      5-min Rain = 0
KCO2 190616Z 34030G36KT 06/M03 A3002 RMK A01 T00581025  RH  055%=      5-min Rain = 0
KCO2 190617Z 34026G32KT 06/M03 A3003 RMK A01 T00581025  RH  055%=      5-min Rain = 0
KCO2 190618Z 34025G31KT 06/M03 A3003 RMK A01 T00581025  RH  055%=      5-min Rain = 0
KCO2 190619Z 34025G31KT 06/M03 A3003 RMK A01 T00581025  RH  055%=      5-min Rain = 0
KCO2 190620Z 34025KT 06/M03 A3003 RMK A01 T00571025  RH  055%=      5-min Rain = 0
KCO2 190621Z 34023G29KT 06/M03 A3003 RMK A01 T00571026  RH  055%=      5-min Rain = 0
KCO2 190622Z 34023KT 06/M03 A3003 RMK A01 T00571025  RH  055%=      5-min Rain = 0
KCO2 190623Z 34018G23KT 06/M03 A3003 RMK A01 T00571025  RH  056%=      5-min Rain = 0
KCO2 190624Z 34021G27KT 06/M03 A3003 RMK A01 T00571025  RH  056%=      5-min Rain = 0
KCO2 190625Z 34022KT 06/M03 A3003 RMK A01 T00561025  RH  056%=      5-min Rain = 0
KCO2 190626Z 34020KT 06/M03 A3003 RMK A01 T00571025  RH  056%=      5-min Rain = 0
KCO2 190627Z 34015G21KT 06/M03 A3003 RMK A01 T00571025  RH  056%=      5-min Rain = 0
KCO2 190628Z 34019G25KT 06/M02 A3003 RMK A01 T00571024  RH  056%=      5-min Rain = 0
KCO2 190629Z 34018G23KT 06/M02 A3004 RMK A01 T00571024  RH  056%=      5-min Rain = 0
KCO2 190630Z 34019G25KT 06/M02 A3004 RMK A01 T00571024  RH  056%=      5-min Rain = 0
KCO2 190631Z 34016KT 06/M02 A3004 RMK A01 T00571024  RH  056%=      5-min Rain = 0
KCO2 190632Z 34021KT 06/M02 A3004 RMK A01 T00571024  RH  056%=      5-min Rain = 0
KCO2 190633Z 34019KT 06/M02 A3004 RMK A01 T00571024  RH  056%=      5-min Rain = 0
KCO2 190634Z 33017G23KT 06/M02 A3004 RMK A01 T00571024  RH  056%=      5-min Rain = 0
KCO2 190635Z 34019KT 06/M02 A3004 RMK A01 T00561024  RH  056%=      5-min Rain = 0
KCO2 190636Z 33015KT 06/M02 A3004 RMK A01 T00561024  RH  056%=      5-min Rain = 0
KCO2 190637Z 34016G21KT 06/M02 A3004 RMK A01 T00561024  RH  056%=      5-min Rain = 0
KCO2 190638Z 33018G23KT 06/M02 A3004 RMK A01 T00561024  RH  056%=      5-min Rain = 0
KCO2 190639Z 33020KT 06/M02 A3004 RMK A01 T00561024  RH  056%=      5-min Rain = 0
KCO2 190640Z 34019KT 06/M02 A3004 RMK A01 T00561024  RH  056%=      5-min Rain = 0
KCO2 190641Z 34017G22KT 06/M02 A3004 RMK A01 T00561023  RH  056%=      5-min Rain = 0
KCO2 190642Z 34021G30KT 06/M02 A3004 RMK A01 T00561024  RH  056%=      5-min Rain = 0
KCO2 190643Z 33021KT 06/M02 A3005 RMK A01 T00561024  RH  056%=      5-min Rain = 0
KCO2 190644Z 34019G25KT 06/M02 A3005 RMK A01 T00561024  RH  057%=      5-min Rain = 0
KCO2 190645Z 34020G27KT 06/M02 A3005 RMK A01 T00561023  RH  057%=      5-min Rain = 0
KCO2 190646Z 34020G25KT 06/M02 A3005 RMK A01 T00561023  RH  057%=      5-min Rain = 0
KCO2 190647Z 33015G20KT 06/M02 A3005 RMK A01 T00561023  RH  057%=      5-min Rain = 0
KCO2 190648Z 34017KT 06/M02 A3005 RMK A01 T00561023  RH  057%=      5-min Rain = 0
KCO2 190649Z 33019KT 06/M02 A3005 RMK A01 T00561023  RH  057%=      5-min Rain = 0
KCO2 190650Z 33013G18KT 06/M02 A3005 RMK A01 T00561023  RH  057%=      5-min Rain = 0
KCO2 190651Z 34015G22KT 06/M02 A3005 RMK A01 T00561022  RH  057%=      5-min Rain = 0
KCO2 190652Z 34016G22KT 06/M02 A3006 RMK A01 T00561022  RH  057%=      5-min Rain = 0
KCO2 190653Z 34014KT 06/M02 A3006 RMK A01 T00561022  RH  057%=      5-min Rain = 0
KCO2 190654Z 33013KT 06/M02 A3006 RMK A01 T00561022  RH  057%=      5-min Rain = 0
KCO2 190655Z 34017KT 06/M02 A3006 RMK A01 T00561022  RH  057%=      5-min Rain = 0
KCO2 190656Z 33015KT 06/M02 A3006 RMK A01 T00561023  RH  057%=      5-min Rain = 0
KCO2 190657Z 33017KT 06/M02 A3006 RMK A01 T00561022  RH  057%=      5-min Rain = 0
KCO2 190658Z 33017KT 06/M02 A3006 RMK A01 T00561022  RH  057%=      5-min Rain = 0
KCO2 190659Z 34017KT 06/M02 A3006 RMK A01 T00561022  RH  057%=      5-min Rain = 0
KCO2 190700Z 33014G19KT 06/M02 A3006 RMK A01 T00561022  RH  057%=      5-min Rain = 0
KCO2 190701Z 32014KT 06/M02 A3006 RMK A01 T00561021  RH  058%=      5-min Rain = 0
KCO2 190702Z 33015KT 06/M02 A3006 RMK A01 T00551020  RH  058%=      5-min Rain = 0
KCO2 190703Z 32020G26KT 05/M02 A3006 RMK A01 T00541019  RH  059%=      5-min Rain = 0
KCO2 190704Z 33022KT 05/M02 A3006 RMK A01 T00531018  RH  060%=      5-min Rain = 0
KCO2 190705Z 32022G28KT 05/M02 A3007 RMK A01 T00511017  RH  061%=      5-min Rain = 0
KCO2 190706Z 32025KT 05/M02 A3007 RMK A01 T00501016  RH  062%=      5-min Rain = 0
KCO2 190707Z 32022G30KT 05/M02 A3007 RMK A01 T00491016  RH  063%=      5-min Rain = 0
KCO2 190708Z 32021G26KT 05/M02 A3007 RMK A01 T00481015  RH  064%=      5-min Rain = 0
KCO2 190709Z 33016G22KT 05/M01 A3007 RMK A01 T00471014  RH  064%=      5-min Rain = 0
KCO2 190710Z 33019G26KT 05/M01 A3008 RMK A01 T00471014  RH  065%=      5-min Rain = 0
KCO2 190711Z 33018G24KT 05/M01 A3008 RMK A01 T00461013  RH  065%=      5-min Rain = 0
KCO2 190712Z 33023KT 05/M01 A3008 RMK A01 T00451013  RH  066%=      5-min Rain = 0
KCO2 190713Z 33022KT 04/M01 A3008 RMK A01 T00441012  RH  067%=      5-min Rain = 0
KCO2 190714Z 33018KT 04/M01 A3008 RMK A01 T00431012  RH  068%=      5-min Rain = 0
KCO2 190715Z 33021G28KT 04/M01 A3008 RMK A01 T00421011  RH  068%=      5-min Rain = 0
KCO2 190716Z 34021G26KT 04/M01 A3008 RMK A01 T00421011  RH  069%=      5-min Rain = 0
KCO2 190717Z 33020KT 04/M01 A3008 RMK A01 T00411010  RH  069%=      5-min Rain = 0
KCO2 190718Z 33019KT 04/M01 A3008 RMK A01 T00411010  RH  069%=      5-min Rain = 0
KCO2 190719Z 33018G24KT 04/M01 A3008 RMK A01 T00411009  RH  070%=      5-min Rain = 0
KCO2 190720Z 34015G22KT 04/M01 A3008 RMK A01 T00411010  RH  070%=      5-min Rain = 0
KCO2 190721Z 33017G22KT 04/M01 A3009 RMK A01 T00401009  RH  070%=      5-min Rain = 0
KCO2 190722Z 34019KT 04/M01 A3009 RMK A01 T00401009  RH  071%=      5-min Rain = 0
KCO2 190723Z 33022G32KT 04/M01 A3009 RMK A01 T00391009  RH  071%=      5-min Rain = 0
KCO2 190724Z 33025KT 04/M01 A3009 RMK A01 T00391008  RH  071%=      5-min Rain = 0
KCO2 190725Z 33022KT 04/M01 A3009 RMK A01 T00381008  RH  072%=      5-min Rain = 0
KCO2 190726Z 33022G29KT 04/M01 A3009 RMK A01 T00371008  RH  072%=      5-min Rain = 0
KCO2 190727Z 33023G29KT 04/M01 A3009 RMK A01 T00371008  RH  073%=      5-min Rain = 0
KCO2 190728Z 33022KT 04/M01 A3009 RMK A01 T00371008  RH  073%=      5-min Rain = 0
KCO2 190729Z 33020KT 04/M01 A3009 RMK A01 T00361007  RH  073%=      5-min Rain = 0
KCO2 190730Z 34019KT 04/M01 A3009 RMK A01 T00361008  RH  073%=      5-min Rain = 0
KCO2 190731Z 34020G29KT 04/M01 A3009 RMK A01 T00361007  RH  073%=      5-min Rain = 0
KCO2 190732Z 34018KT 04/M01 A3009 RMK A01 T00361007  RH  074%=      5-min Rain = 0
KCO2 190733Z 33024KT 04/M01 A3009 RMK A01 T00361007  RH  074%=      5-min Rain = 0
KCO2 190734Z 33021G27KT 04/M01 A3009 RMK A01 T00351006  RH  074%=      5-min Rain = 0
KCO2 190735Z 33022KT 04/M01 A3009 RMK A01 T00351006  RH  075%=      5-min Rain = 0
KCO2 190736Z 33021KT 04/M01 A3009 RMK A01 T00351006  RH  075%=      5-min Rain = 0
KCO2 190737Z 33017G22KT 03/M01 A3009 RMK A01 T00341005  RH  075%=      5-min Rain = 0
KCO2 190738Z 33020G25KT 03/M01 A301 RMK A01 T00341005  RH  076%=      5-min Rain = 0
KCO2 190739Z 33019G25KT 03/M01 A301 RMK A01 T00341005  RH  076%=      5-min Rain = 0
KCO2 190740Z 33026KT 03/M01 A3009 RMK A01 T00331005  RH  076%=      5-min Rain = 0
KCO2 190741Z 33021KT 03/M01 A301 RMK A01 T00321005  RH  077%=      5-min Rain = 0
KCO2 190742Z 32022G27KT 03/M00 A301 RMK A01 T00311004  RH  077%=      5-min Rain = 0
KCO2 190743Z 32025KT 03/M00 A301 RMK A01 T00311004  RH  078%=      5-min Rain = 0
KCO2 190744Z 32022G28KT 03/M00 A301 RMK A01 T00301004  RH  078%=      5-min Rain = 0
KCO2 190745Z 32021G26KT 03/M00 A301 RMK A01 T00291003  RH  079%=      5-min Rain = 0
KCO2 190746Z 33024G29KT 03/M00 A301 RMK A01 T00281002  RH  081%=      5-min Rain = 0
KCO2 190747Z 32023KT 03/00 A301 RMK A01 T002800-0  RH  082%=      5-min Rain = 0
KCO2 190748Z 32022KT 03/00 A301 RMK A01 T00260000  RH  083%=      5-min Rain = 0
KCO2 190749Z 32022G29KT 03/00 A301 RMK A01 T00260001  RH  084%=      5-min Rain = 0
KCO2 190750Z 32025G30KT 02/00 A301 RMK A01 T00240001  RH  085%=      5-min Rain = 0
KCO2 190751Z 33025G30KT 02/00 A301 RMK A01 T00230002  RH  086%=      5-min Rain = 0
KCO2 190752Z 33018G23KT 02/00 A3011 RMK A01 T00230002  RH  086%=      5-min Rain = 0
KCO2 190753Z 32021G29KT 02/00 A301 RMK A01 T00230004  RH  087%=      5-min Rain = 0
KCO2 190754Z 33022G28KT 02/00 A301 RMK A01 T00220003  RH  087%=      5-min Rain = 0
KCO2 190755Z 33025G31KT 02/00 A3011 RMK A01 T00220003  RH  088%=      5-min Rain = 0
KCO2 190756Z 33020KT 02/00 A3011 RMK A01 T00220003  RH  088%=      5-min Rain = 0
KCO2 190757Z 32018G23KT 02/00 A3011 RMK A01 T00210004  RH  088%=      5-min Rain = 0
KCO2 190758Z 33022KT 02/00 A3011 RMK A01 T00210004  RH  089%=      5-min Rain = 0
KCO2 190759Z 32017G23KT 02/00 A3011 RMK A01 T00210004  RH  089%=      5-min Rain = 0
KCO2 190800Z 32021G26KT 02/00 A3011 RMK A01 T00200004  RH  089%=      5-min Rain = 0
KCO2 190801Z 32018KT 02/01 A3011 RMK A01 T00200005  RH  089%=      5-min Rain = 0
KCO2 190802Z 33018KT 02/01 A3011 RMK A01 T00200005  RH  090%=      5-min Rain = 0
KCO2 190803Z 32018KT 02/01 A3011 RMK A01 T00200005  RH  090%=      5-min Rain = 0
KCO2 190804Z 32016G21KT 02/01 A3011 RMK A01 T00200005  RH  090%=      5-min Rain = 0
KCO2 190805Z 33019KT 02/01 A3011 RMK A01 T00200006  RH  090%=      5-min Rain = 0
KCO2 190806Z 33016KT 02/01 A3011 RMK A01 T00200006  RH  090%=      5-min Rain = 0
KCO2 190807Z 32018KT 02/01 A3011 RMK A01 T00200006  RH  090%=      5-min Rain = 0
KCO2 190808Z 33017KT 02/01 A3011 RMK A01 T00190005  RH  090%=      5-min Rain = 0
KCO2 190809Z 33015KT 02/01 A3011 RMK A01 T00200006  RH  091%=      5-min Rain = 0
KCO2 190810Z 33013G19KT 02/01 A3012 RMK A01 T00190006  RH  091%=      5-min Rain = 0
KCO2 190811Z 33017KT 02/01 A3012 RMK A01 T00190006  RH  091%=      5-min Rain = 0
KCO2 190812Z 33016G22KT 02/01 A3012 RMK A01 T00200006  RH  091%=      5-min Rain = 0
KCO2 190813Z 33015KT 02/01 A3012 RMK A01 T00190006  RH  091%=      5-min Rain = 0
KCO2 190814Z 33018KT 02/01 A3012 RMK A01 T00200006  RH  091%=      5-min Rain = 0
KCO2 190815Z 33013KT 02/01 A3012 RMK A01 T00190006  RH  091%=      5-min Rain = 0
KCO2 190816Z 33015G21KT 02/01 A3012 RMK A01 T00200006  RH  091%=      5-min Rain = 0
KCO2 190817Z 33016KT 02/01 A3012 RMK A01 T00190006  RH  091%=      5-min Rain = 0
KCO2 190818Z 33019G24KT 02/01 A3012 RMK A01 T00200006  RH  090%=      5-min Rain = 0
KCO2 190819Z 33018G23KT 02/01 A3012 RMK A01 T00200006  RH  090%=      5-min Rain = 0
KCO2 190820Z 33017G22KT 02/01 A3012 RMK A01 T00210005  RH  090%=      5-min Rain = 0
KCO2 190821Z 33014KT 02/01 A3012 RMK A01 T00210005  RH  089%=      5-min Rain = 0
KCO2 190822Z 33017G25KT 02/01 A3012 RMK A01 T00210006  RH  089%=      5-min Rain = 0
KCO2 190823Z 33019KT 02/01 A3012 RMK A01 T00220005  RH  089%=      5-min Rain = 0
KCO2 190824Z 34018KT 02/00 A3012 RMK A01 T00220004  RH  088%=      5-min Rain = 0
KCO2 190825Z 33019KT 02/00 A3012 RMK A01 T00230003  RH  087%=      5-min Rain = 0
KCO2 190826Z 33016G21KT 02/00 A3012 RMK A01 T00230003  RH  087%=      5-min Rain = 0
KCO2 190827Z 33015G21KT 02/00 A3012 RMK A01 T00230003  RH  087%=      5-min Rain = 0
KCO2 190828Z 33017KT 02/00 A3012 RMK A01 T00240003  RH  086%=      5-min Rain = 0
KCO2 190829Z 34014KT 02/00 A3013 RMK A01 T00240003  RH  086%=      5-min Rain = 0
KCO2 190830Z 33017KT 02/00 A3013 RMK A01 T00240003  RH  086%=      5-min Rain = 0
KCO2 190831Z 33014KT 02/00 A3013 RMK A01 T00240003  RH  086%=      5-min Rain = 0
KCO2 190832Z 34015G20KT 02/00 A3013 RMK A01 T00240003  RH  086%=      5-min Rain = 0
KCO2 190833Z 33011KT 02/00 A3013 RMK A01 T00240003  RH  086%=      5-min Rain = 0
KCO2 190834Z 33013KT 02/00 A3013 RMK A01 T00240004  RH  086%=      5-min Rain = 0
KCO2 190835Z 33014KT 02/00 A3013 RMK A01 T00240003  RH  086%=      5-min Rain = 0
KCO2 190836Z 33014KT 02/00 A3013 RMK A01 T00240003  RH  086%=      5-min Rain = 0
KCO2 190837Z 33015KT 02/00 A3012 RMK A01 T00240003  RH  086%=      5-min Rain = 0
KCO2 190838Z 33014KT 02/00 A3013 RMK A01 T00240002  RH  085%=      5-min Rain = 0
KCO2 190839Z 33014KT 03/00 A3013 RMK A01 T00250002  RH  085%=      5-min Rain = 0
KCO2 190840Z 33014KT 03/00 A3013 RMK A01 T00250002  RH  085%=      5-min Rain = 0
KCO2 190841Z 33011KT 03/00 A3013 RMK A01 T00250003  RH  085%=      5-min Rain = 0
KCO2 190842Z 33014KT 03/00 A3012 RMK A01 T00250003  RH  085%=      5-min Rain = 0
KCO2 190843Z 33013KT 03/00 A3013 RMK A01 T00250003  RH  085%=      5-min Rain = 0
KCO2 190844Z 33013KT 03/00 A3013 RMK A01 T00250003  RH  086%=      5-min Rain = 0
KCO2 190845Z 32011KT 03/00 A3013 RMK A01 T00250003  RH  086%=      5-min Rain = 0
KCO2 190846Z 32011G18KT 03/00 A3013 RMK A01 T00250004  RH  086%=      5-min Rain = 0
KCO2 190847Z 32012G17KT 03/01 A3013 RMK A01 T00250005  RH  086%=      5-min Rain = 0
KCO2 190848Z 32013KT 03/00 A3012 RMK A01 T00250004  RH  086%=      5-min Rain = 0
KCO2 190849Z 32016KT 03/00 A3012 RMK A01 T00250004  RH  086%=      5-min Rain = 0
KCO2 190850Z 32014KT 03/00 A3012 RMK A01 T00250003  RH  086%=      5-min Rain = 0
KCO2 190851Z 32012KT 03/00 A3012 RMK A01 T00250003  RH  085%=      5-min Rain = 0
KCO2 190852Z 33014KT 03/00 A3012 RMK A01 T00250003  RH  085%=      5-min Rain = 0
KCO2 190853Z 32015KT 03/00 A3012 RMK A01 T00250003  RH  085%=      5-min Rain = 0
KCO2 190854Z 32015KT 03/00 A3012 RMK A01 T00250002  RH  085%=      5-min Rain = 0
KCO2 190855Z 32014KT 03/00 A3013 RMK A01 T00250002  RH  085%=      5-min Rain = 0
KCO2 190856Z 32013KT 03/00 A3013 RMK A01 T00250002  RH  085%=      5-min Rain = 0
KCO2 190857Z 32016KT 03/00 A3013 RMK A01 T00250002  RH  085%=      5-min Rain = 0
KCO2 190858Z 33015KT 03/00 A3013 RMK A01 T00250001  RH  084%=      5-min Rain = 0
KCO2 190859Z 33013KT 03/00 A3013 RMK A01 T00250001  RH  084%=      5-min Rain = 0
KCO2 190900Z 33014KT 03/00 A3013 RMK A01 T00250001  RH  084%=      5-min Rain = 0
KCO2 190901Z 33013KT 03/00 A3013 RMK A01 T00250001  RH  084%=      5-min Rain = 0
KCO2 190902Z 33010G15KT 03/00 A3013 RMK A01 T00250001  RH  084%=      5-min Rain = 0
KCO2 190903Z 33012KT 03/00 A3013 RMK A01 T00250001  RH  084%=      5-min Rain = 0
KCO2 190904Z 33011KT 03/00 A3013 RMK A01 T00250001  RH  084%=      5-min Rain = 0
KCO2 190905Z 33013KT 03/00 A3013 RMK A01 T00250001  RH  084%=      5-min Rain = 0
KCO2 190906Z 33013KT 03/00 A3013 RMK A01 T00250001  RH  084%=      5-min Rain = 0
KCO2 190907Z 32011KT 03/00 A3013 RMK A01 T002500-0  RH  084%=      5-min Rain = 0
KCO2 190908Z 32012KT 03/00 A3013 RMK A01 T00250000  RH  084%=      5-min Rain = 0
KCO2 190909Z 32011KT 03/00 A3013 RMK A01 T00250000  RH  083%=      5-min Rain = 0
KCO2 190910Z 32014G19KT 03/00 A3013 RMK A01 T00260000  RH  083%=      5-min Rain = 0
KCO2 190911Z 33012KT 03/00 A3013 RMK A01 T002600-0  RH  083%=      5-min Rain = 0
KCO2 190912Z 32009G14KT 03/00 A3013 RMK A01 T002600-0  RH  083%=      5-min Rain = 0
KCO2 190913Z 32013KT 03/00 A3013 RMK A01 T002600-0  RH  083%=      5-min Rain = 0
KCO2 190914Z 32014KT 03/00 A3013 RMK A01 T002700-0  RH  082%=      5-min Rain = 0
KCO2 190915Z 32012KT 03/00 A3013 RMK A01 T002700-0  RH  082%=      5-min Rain = 0
KCO2 190916Z 32014KT 03/00 A3012 RMK A01 T002800-0  RH  082%=      5-min Rain = 0
KCO2 190917Z 32015KT 03/M00 A3012 RMK A01 T00281001  RH  081%=      5-min Rain = 0
KCO2 190918Z 32013KT 03/M00 A3012 RMK A01 T00291002  RH  080%=      5-min Rain = 0
KCO2 190919Z 32013KT 03/M00 A3013 RMK A01 T00291002  RH  080%=      5-min Rain = 0
KCO2 190920Z 32015KT 03/M00 A3012 RMK A01 T00301002  RH  079%=      5-min Rain = 0
KCO2 190921Z 32013KT 03/M00 A3013 RMK A01 T00301003  RH  079%=      5-min Rain = 0
KCO2 190922Z 33012KT 03/M00 A3013 RMK A01 T00311002  RH  079%=      5-min Rain = 0
KCO2 190923Z 33013KT 03/M00 A3013 RMK A01 T00311003  RH  079%=      5-min Rain = 0
KCO2 190924Z 33016G21KT 03/M00 A3013 RMK A01 T00311003  RH  078%=      5-min Rain = 0
KCO2 190925Z 33013G18KT 03/M00 A3013 RMK A01 T00311004  RH  078%=      5-min Rain = 0
KCO2 190926Z 33016KT 03/M00 A3013 RMK A01 T00311004  RH  078%=      5-min Rain = 0
KCO2 190927Z 32015G20KT 03/M00 A3013 RMK A01 T00321004  RH  077%=      5-min Rain = 0
KCO2 190928Z 33014KT 03/M01 A3013 RMK A01 T00321005  RH  077%=      5-min Rain = 0
KCO2 190929Z 32013KT 03/M00 A3013 RMK A01 T00321004  RH  077%=      5-min Rain = 0
KCO2 190930Z 33012KT 03/M00 A3013 RMK A01 T00321004  RH  077%=      5-min Rain = 0
KCO2 190931Z 32014KT 03/M00 A3013 RMK A01 T00321004  RH  077%=      5-min Rain = 0
KCO2 190932Z 32015KT 03/M00 A3013 RMK A01 T00311004  RH  077%=      5-min Rain = 0
KCO2 190933Z 33015KT 03/M01 A3013 RMK A01 T00311005  RH  077%=      5-min Rain = 0
KCO2 190934Z 32013KT 03/M01 A3013 RMK A01 T00311005  RH  077%=      5-min Rain = 0
KCO2 190935Z 33013KT 03/M01 A3013 RMK A01 T00301005  RH  077%=      5-min Rain = 0
KCO2 190936Z 33014KT 03/M01 A3013 RMK A01 T00301005  RH  078%=      5-min Rain = 0
KCO2 190937Z 32013KT 03/M01 A3013 RMK A01 T00301005  RH  078%=      5-min Rain = 0
KCO2 190938Z 32012KT 03/M01 A3013 RMK A01 T00291005  RH  078%=      5-min Rain = 0
KCO2 190939Z 32013KT 03/M01 A3013 RMK A01 T00291005  RH  078%=      5-min Rain = 0
KCO2 190940Z 32011KT 03/M01 A3013 RMK A01 T00291005  RH  079%=      5-min Rain = 0
KCO2 190941Z 32010KT 03/M01 A3013 RMK A01 T00281005  RH  079%=      5-min Rain = 0
KCO2 190942Z 32011KT 03/M01 A3013 RMK A01 T00281005  RH  079%=      5-min Rain = 0
KCO2 190943Z 32010KT 03/M01 A3013 RMK A01 T00281005  RH  079%=      5-min Rain = 0
KCO2 190944Z 31011KT 03/M01 A3013 RMK A01 T00271005  RH  079%=      5-min Rain = 0
KCO2 190945Z 32014KT 03/M01 A3013 RMK A01 T00271005  RH  080%=      5-min Rain = 0
KCO2 190946Z 32013KT 03/M01 A3013 RMK A01 T00271005  RH  079%=      5-min Rain = 0
KCO2 190947Z 32013KT 03/M01 A3013 RMK A01 T00281005  RH  079%=      5-min Rain = 0
KCO2 190948Z 32013KT 03/M01 A3013 RMK A01 T00281005  RH  079%=      5-min Rain = 0
KCO2 190949Z 32011KT 03/M01 A3013 RMK A01 T00281005  RH  079%=      5-min Rain = 0
KCO2 190950Z 32011KT 03/M01 A3014 RMK A01 T00281005  RH  079%=      5-min Rain = 0
KCO2 190951Z 32012KT 03/M01 A3014 RMK A01 T00281005  RH  079%=      5-min Rain = 0
KCO2 190952Z 32012KT 03/M01 A3014 RMK A01 T00271005  RH  079%=      5-min Rain = 0
KCO2 190953Z 32010KT 03/M01 A3014 RMK A01 T00271005  RH  079%=      5-min Rain = 0
KCO2 190954Z 32012KT 03/M01 A3014 RMK A01 T00271005  RH  079%=      5-min Rain = 0
KCO2 190955Z 32011KT 03/M01 A3014 RMK A01 T00271006  RH  079%=      5-min Rain = 0
KCO2 190956Z 32012KT 03/M01 A3014 RMK A01 T00281005  RH  079%=      5-min Rain = 0
KCO2 190957Z 32014KT 03/M01 A3014 RMK A01 T00281005  RH  079%=      5-min Rain = 0
KCO2 190958Z 31013KT 03/M01 A3014 RMK A01 T00291006  RH  078%=      5-min Rain = 0
KCO2 190959Z 32013KT 03/M01 A3014 RMK A01 T00301006  RH  078%=      5-min Rain = 0
KCO2 191000Z 32013KT 03/M01 A3014 RMK A01 T00301006  RH  077%=      5-min Rain = 0
KCO2 191001Z 31013KT 03/M01 A3014 RMK A01 T00301007  RH  077%=      5-min Rain = 0
KCO2 191002Z 31013KT 03/M01 A3014 RMK A01 T00311007  RH  076%=      5-min Rain = 0
KCO2 191003Z 31013KT 03/M01 A3014 RMK A01 T00311007  RH  076%=      5-min Rain = 0
KCO2 191004Z 31012KT 03/M01 A3014 RMK A01 T00311007  RH  076%=      5-min Rain = 0
KCO2 191005Z 32013KT 03/M01 A3014 RMK A01 T00311008  RH  076%=      5-min Rain = 0
KCO2 191006Z 31014KT 03/M01 A3014 RMK A01 T00311008  RH  075%=      5-min Rain = 0
KCO2 191007Z 31014KT 03/M01 A3014 RMK A01 T00311009  RH  075%=      5-min Rain = 0
KCO2 191008Z 31015KT 03/M01 A3014 RMK A01 T00321010  RH  074%=      5-min Rain = 0
KCO2 191009Z 32017G22KT 03/M01 A3014 RMK A01 T00321011  RH  074%=      5-min Rain = 0
KCO2 191010Z 32014KT 03/M01 A3014 RMK A01 T00331011  RH  073%=      5-min Rain = 0
KCO2 191011Z 32015KT 03/M01 A3015 RMK A01 T00331011  RH  073%=      5-min Rain = 0
KCO2 191012Z 32017KT 03/M01 A3015 RMK A01 T00331012  RH  073%=      5-min Rain = 0
KCO2 191013Z 32019KT 03/M01 A3014 RMK A01 T00331013  RH  072%=      5-min Rain = 0
KCO2 191014Z 33017G22KT 03/M01 A3015 RMK A01 T00341013  RH  071%=      5-min Rain = 0
KCO2 191015Z 32016KT 03/M01 A3015 RMK A01 T00341013  RH  071%=      5-min Rain = 0
KCO2 191016Z 33016G21KT 03/M01 A3015 RMK A01 T00331014  RH  071%=      5-min Rain = 0
KCO2 191017Z 33015G20KT 03/M01 A3015 RMK A01 T00331014  RH  071%=      5-min Rain = 0
KCO2 191018Z 32014KT 03/M01 A3015 RMK A01 T00331014  RH  071%=      5-min Rain = 0
KCO2 191019Z 33014KT 03/M01 A3015 RMK A01 T00331014  RH  071%=      5-min Rain = 0
KCO2 191020Z 32014KT 03/M02 A3015 RMK A01 T00321015  RH  072%=      5-min Rain = 0
KCO2 191021Z 32016KT 03/M02 A3015 RMK A01 T00311015  RH  072%=      5-min Rain = 0
KCO2 191022Z 32014KT 03/M02 A3015 RMK A01 T00321015  RH  072%=      5-min Rain = 0
KCO2 191023Z 32014KT 03/M02 A3015 RMK A01 T00321015  RH  072%=      5-min Rain = 0
KCO2 191024Z 32015KT 03/M02 A3015 RMK A01 T00311015  RH  072%=      5-min Rain = 0
KCO2 191025Z 32013KT 03/M02 A3015 RMK A01 T00311015  RH  072%=      5-min Rain = 0
KCO2 191026Z 32014KT 03/M02 A3015 RMK A01 T00311015  RH  072%=      5-min Rain = 0
KCO2 191027Z 32014KT 03/M01 A3015 RMK A01 T00311014  RH  072%=      5-min Rain = 0
KCO2 191028Z 32014G19KT 03/M01 A3015 RMK A01 T00311014  RH  072%=      5-min Rain = 0
KCO2 191029Z 31015KT 03/M02 A3015 RMK A01 T00301015  RH  072%=      5-min Rain = 0
KCO2 191030Z 31012KT 03/M02 A3015 RMK A01 T00301015  RH  072%=      5-min Rain = 0
KCO2 191031Z 31014KT 03/M02 A3016 RMK A01 T00301015  RH  072%=      5-min Rain = 0
KCO2 191032Z 31012KT 03/M02 A3016 RMK A01 T00301015  RH  073%=      5-min Rain = 0
KCO2 191033Z 31012KT 03/M02 A3016 RMK A01 T00291015  RH  073%=      5-min Rain = 0
KCO2 191034Z 31013KT 03/M02 A3016 RMK A01 T00291015  RH  073%=      5-min Rain = 0
KCO2 191035Z 31014KT 03/M02 A3016 RMK A01 T00291015  RH  073%=      5-min Rain = 0
KCO2 191036Z 31015KT 03/M02 A3016 RMK A01 T00291016  RH  072%=      5-min Rain = 0
KCO2 191037Z 31015KT 03/M02 A3016 RMK A01 T00291017  RH  072%=      5-min Rain = 0
KCO2 191038Z 31015KT 03/M02 A3016 RMK A01 T00301017  RH  071%=      5-min Rain = 0
KCO2 191039Z 32014G19KT 03/M02 A3016 RMK A01 T00301018  RH  071%=      5-min Rain = 0
KCO2 191040Z 32017KT 03/M02 A3016 RMK A01 T00301018  RH  071%=      5-min Rain = 0
KCO2 191041Z 32017KT 03/M02 A3016 RMK A01 T00301019  RH  070%=      5-min Rain = 0
KCO2 191042Z 31016KT 03/M02 A3016 RMK A01 T00301019  RH  070%=      5-min Rain = 0
KCO2 191043Z 32015KT 03/M02 A3016 RMK A01 T00291020  RH  070%=      5-min Rain = 0
KCO2 191044Z 32014KT 03/M02 A3016 RMK A01 T00301020  RH  070%=      5-min Rain = 0
KCO2 191045Z 32014G19KT 03/M02 A3016 RMK A01 T00291020  RH  070%=      5-min Rain = 0
KCO2 191046Z 31015KT 03/M02 A3016 RMK A01 T00281021  RH  070%=      5-min Rain = 0
KCO2 191047Z 32015KT 03/M02 A3016 RMK A01 T00281021  RH  070%=      5-min Rain = 0
KCO2 191048Z 32013KT 03/M02 A3016 RMK A01 T00281021  RH  070%=      5-min Rain = 0
KCO2 191049Z 32016G22KT 03/M02 A3016 RMK A01 T00281021  RH  070%=      5-min Rain = 0
KCO2 191050Z 32019KT 03/M02 A3016 RMK A01 T00281021  RH  070%=      5-min Rain = 0
KCO2 191051Z 32018KT 03/M02 A3016 RMK A01 T00291021  RH  070%=      5-min Rain = 0
KCO2 191052Z 32017G22KT 03/M02 A3016 RMK A01 T00291022  RH  069%=      5-min Rain = 0
KCO2 191053Z 32016G22KT 03/M02 A3016 RMK A01 T00291022  RH  069%=      5-min Rain = 0
KCO2 191054Z 32014KT 03/M02 A3016 RMK A01 T00291022  RH  069%=      5-min Rain = 0
KCO2 191055Z 32016KT 03/M02 A3016 RMK A01 T00281022  RH  069%=      5-min Rain = 0
KCO2 191056Z 32015KT 03/M02 A3016 RMK A01 T00281023  RH  069%=      5-min Rain = 0
KCO2 191057Z 32018KT 03/M02 A3016 RMK A01 T00281023  RH  069%=      5-min Rain = 0
KCO2 191058Z 32016KT 03/M02 A3016 RMK A01 T00281024  RH  069%=      5-min Rain = 0
KCO2 191059Z 32016G21KT 03/M02 A3016 RMK A01 T00281023  RH  069%=      5-min Rain = 0
KCO2 191100Z 32016KT 03/M02 A3016 RMK A01 T00281024  RH  069%=      5-min Rain = 0
KCO2 191101Z 33016KT 03/M02 A3016 RMK A01 T00281024  RH  069%=      5-min Rain = 0
KCO2 191102Z 32014KT 03/M02 A3016 RMK A01 T00281024  RH  069%=      5-min Rain = 0
KCO2 191103Z 32014KT 03/M02 A3016 RMK A01 T00281024  RH  069%=      5-min Rain = 0
KCO2 191104Z 31011G17KT 03/M02 A3017 RMK A01 T00271024  RH  069%=      5-min Rain = 0
KCO2 191105Z 32015KT 03/M02 A3017 RMK A01 T00261024  RH  070%=      5-min Rain = 0
KCO2 191106Z 32014KT 03/M02 A3017 RMK A01 T00261023  RH  070%=      5-min Rain = 0
KCO2 191107Z 32017KT 03/M02 A3017 RMK A01 T00261024  RH  070%=      5-min Rain = 0
KCO2 191108Z 32017KT 03/M02 A3017 RMK A01 T00261024  RH  070%=      5-min Rain = 0
KCO2 191109Z 32020KT 03/M02 A3017 RMK A01 T00261024  RH  069%=      5-min Rain = 0
KCO2 191110Z 33017G22KT 03/M03 A3017 RMK A01 T00261025  RH  069%=      5-min Rain = 0
KCO2 191111Z 32014G19KT 03/M03 A3017 RMK A01 T00261025  RH  069%=      5-min Rain = 0
KCO2 191112Z 32014KT 03/M03 A3017 RMK A01 T00261025  RH  069%=      5-min Rain = 0
KCO2 191113Z 33013KT 03/M03 A3017 RMK A01 T00251025  RH  069%=      5-min Rain = 0
KCO2 191114Z 32018G23KT 03/M03 A3017 RMK A01 T00251025  RH  070%=      5-min Rain = 0
KCO2 191115Z 33017KT 03/M03 A3017 RMK A01 T00251026  RH  069%=      5-min Rain = 0
KCO2 191116Z 32017KT 03/M03 A3017 RMK A01 T00251027  RH  069%=      5-min Rain = 0
KCO2 191117Z 33017KT 03/M03 A3017 RMK A01 T00251027  RH  069%=      5-min Rain = 0
KCO2 191118Z 33016G21KT 03/M03 A3017 RMK A01 T00251027  RH  068%=      5-min Rain = 0
KCO2 191119Z 33015G20KT 03/M03 A3017 RMK A01 T00251027  RH  068%=      5-min Rain = 0
KCO2 191120Z 33013KT 03/M03 A3017 RMK A01 T00251027  RH  068%=      5-min Rain = 0
KCO2 191121Z 33015KT 02/M03 A3017 RMK A01 T00241028  RH  069%=      5-min Rain = 0
KCO2 191122Z 33015KT 02/M03 A3017 RMK A01 T00241027  RH  069%=      5-min Rain = 0
KCO2 191123Z 32014KT 02/M03 A3017 RMK A01 T00241027  RH  069%=      5-min Rain = 0
KCO2 191124Z 33014KT 02/M03 A3017 RMK A01 T00241027  RH  069%=      5-min Rain = 0
KCO2 191125Z 33019G25KT 02/M03 A3017 RMK A01 T00241028  RH  069%=      5-min Rain = 0
KCO2 191126Z 33015KT 02/M03 A3017 RMK A01 T00241029  RH  068%=      5-min Rain = 0
KCO2 191127Z 33015G21KT 02/M03 A3018 RMK A01 T00241029  RH  068%=      5-min Rain = 0
KCO2 191128Z 33017KT 02/M03 A3017 RMK A01 T00241029  RH  068%=      5-min Rain = 0
KCO2 191129Z 33016KT 02/M03 A3018 RMK A01 T00241029  RH  068%=      5-min Rain = 0
KCO2 191130Z 33017G23KT 02/M03 A3018 RMK A01 T00241029  RH  068%=      5-min Rain = 0
KCO2 191131Z 33016G22KT 02/M03 A3018 RMK A01 T00241030  RH  068%=      5-min Rain = 0
KCO2 191132Z 33015G23KT 02/M03 A3018 RMK A01 T00241029  RH  068%=      5-min Rain = 0
KCO2 191133Z 32018KT 02/M03 A3018 RMK A01 T00231030  RH  068%=      5-min Rain = 0
KCO2 191134Z 33015KT 02/M03 A3018 RMK A01 T00231030  RH  068%=      5-min Rain = 0
KCO2 191135Z 33017G22KT 02/M03 A3018 RMK A01 T00231031  RH  068%=      5-min Rain = 0
KCO2 191136Z 33018G24KT 02/M03 A3018 RMK A01 T00231031  RH  068%=      5-min Rain = 0
KCO2 191137Z 33016G23KT 02/M03 A3018 RMK A01 T00221031  RH  068%=      5-min Rain = 0
KCO2 191138Z 33019KT 02/M03 A3018 RMK A01 T00221031  RH  068%=      5-min Rain = 0
KCO2 191139Z 33018KT 02/M03 A3018 RMK A01 T00221031  RH  068%=      5-min Rain = 0
KCO2 191140Z 33021G26KT 02/M03 A3018 RMK A01 T00221032  RH  067%=      5-min Rain = 0
KCO2 191141Z 33020KT 02/M03 A3018 RMK A01 T00221032  RH  067%=      5-min Rain = 0
KCO2 191142Z 33022G28KT 02/M03 A3018 RMK A01 T00221033  RH  067%=      5-min Rain = 0
KCO2 191143Z 33019KT 02/M03 A3019 RMK A01 T00231033  RH  066%=      5-min Rain = 0
KCO2 191144Z 33018KT 02/M03 A3019 RMK A01 T00231034  RH  066%=      5-min Rain = 0
KCO2 191145Z 33019KT 02/M03 A3019 RMK A01 T00231033  RH  066%=      5-min Rain = 0
KCO2 191146Z 33019G24KT 02/M03 A3019 RMK A01 T00231033  RH  066%=      5-min Rain = 0
KCO2 191147Z 33017KT 02/M03 A3019 RMK A01 T00221033  RH  067%=      5-min Rain = 0
KCO2 191148Z 33019G24KT 02/M03 A3019 RMK A01 T00221033  RH  067%=      5-min Rain = 0
KCO2 191149Z 33014KT 02/M03 A3019 RMK A01 T00221033  RH  067%=      5-min Rain = 0
KCO2 191150Z 33016KT 02/M03 A3019 RMK A01 T00211033  RH  067%=      5-min Rain = 0
KCO2 191151Z 33015G20KT 02/M03 A3019 RMK A01 T00211033  RH  068%=      5-min Rain = 0
KCO2 191152Z 33015KT 02/M03 A3019 RMK A01 T00201033  RH  068%=      5-min Rain = 0
KCO2 191153Z 32015KT 02/M03 A3019 RMK A01 T00201033  RH  068%=      5-min Rain = 0
KCO2 191154Z 33015KT 02/M03 A302 RMK A01 T00191033  RH  068%=      5-min Rain = 0
KCO2 191155Z 33014G19KT 02/M03 A302 RMK A01 T00191033  RH  068%=      5-min Rain = 0
KCO2 191156Z 33013KT 02/M03 A302 RMK A01 T00191033  RH  068%=      5-min Rain = 0
KCO2 191157Z 33016G21KT 02/M03 A302 RMK A01 T00191033  RH  068%=      5-min Rain = 0
KCO2 191158Z 33016KT 02/M03 A302 RMK A01 T00191033  RH  068%=      5-min Rain = 0
KCO2 191159Z 33015KT 02/M03 A302 RMK A01 T00191033  RH  068%=      5-min Rain = 0
KCO2 191200Z 33019G25KT 02/M03 A302 RMK A01 T00191033  RH  068%=      5-min Rain = 0
KCO2 191201Z 33019G24KT 02/M03 A302 RMK A01 T00201033  RH  068%=      5-min Rain = 0
KCO2 191202Z 34014G19KT 02/M03 A302 RMK A01 T00201034  RH  068%=      5-min Rain = 0
KCO2 191203Z 33019KT 02/M03 A302 RMK A01 T00201034  RH  068%=      5-min Rain = 0
KCO2 191204Z 33014KT 02/M03 A302 RMK A01 T00191034  RH  068%=      5-min Rain = 0
KCO2 191205Z 34015G21KT 02/M03 A302 RMK A01 T00191034  RH  068%=      5-min Rain = 0
KCO2 191206Z 34016G22KT 02/M03 A302 RMK A01 T00191034  RH  068%=      5-min Rain = 0
KCO2 191207Z 33016KT 02/M03 A302 RMK A01 T00191034  RH  068%=      5-min Rain = 0
KCO2 191208Z 34015KT 02/M04 A302 RMK A01 T00191035  RH  068%=      5-min Rain = 0
KCO2 191209Z 33018G23KT 02/M04 A302 RMK A01 T00191035  RH  068%=      5-min Rain = 0
KCO2 191210Z 34015KT 02/M04 A302 RMK A01 T00191035  RH  068%=      5-min Rain = 0
KCO2 191211Z 34017KT 02/M04 A302 RMK A01 T00191035  RH  068%=      5-min Rain = 0
KCO2 191212Z 34017G22KT 02/M04 A302 RMK A01 T00191035  RH  067%=      5-min Rain = 0
KCO2 191213Z 34014G19KT 02/M04 A302 RMK A01 T00191035  RH  067%=      5-min Rain = 0
KCO2 191214Z 34019G26KT 02/M04 A302 RMK A01 T00191036  RH  067%=      5-min Rain = 0
KCO2 191215Z 33015G21KT 02/M04 A302 RMK A01 T00191035  RH  067%=      5-min Rain = 0
KCO2 191216Z 33014G19KT 02/M04 A3021 RMK A01 T00191036  RH  067%=      5-min Rain = 0
KCO2 191217Z 34014G19KT 02/M04 A3021 RMK A01 T00181035  RH  067%=      5-min Rain = 0
KCO2 191218Z 33014KT 02/M03 A3021 RMK A01 T00191034  RH  068%=      5-min Rain = 0
KCO2 191219Z 34013KT 02/M04 A3021 RMK A01 T00191035  RH  068%=      5-min Rain = 0
KCO2 191220Z 33011KT 02/M04 A3021 RMK A01 T00181035  RH  068%=      5-min Rain = 0
KCO2 191221Z 33014G19KT 02/M04 A3021 RMK A01 T00171035  RH  068%=      5-min Rain = 0
KCO2 191222Z 33013KT 02/M03 A3021 RMK A01 T00171034  RH  069%=      5-min Rain = 0
KCO2 191223Z 34014G19KT 02/M03 A3021 RMK A01 T00171034  RH  069%=      5-min Rain = 0
KCO2 191224Z 33013KT 02/M03 A3021 RMK A01 T00171034  RH  069%=      5-min Rain = 0
KCO2 191225Z 32013KT 02/M03 A3021 RMK A01 T00171034  RH  069%=      5-min Rain = 0
KCO2 191226Z 33013KT 02/M03 A3021 RMK A01 T00171034  RH  069%=      5-min Rain = 0
KCO2 191227Z 33012KT 02/M03 A3021 RMK A01 T00171033  RH  069%=      5-min Rain = 0
KCO2 191228Z 33012KT 02/M03 A3021 RMK A01 T00161033  RH  070%=      5-min Rain = 0
KCO2 191229Z 33010KT 02/M03 A3021 RMK A01 T00161033  RH  070%=      5-min Rain = 0
KCO2 191230Z 32010KT 02/M03 A3021 RMK A01 T00161033  RH  070%=      5-min Rain = 0
KCO2 191231Z 33012KT 02/M03 A3021 RMK A01 T00151033  RH  070%=      5-min Rain = 0
KCO2 191232Z 32011G18KT 02/M03 A3022 RMK A01 T00151033  RH  070%=      5-min Rain = 0
KCO2 191233Z 32013KT 02/M03 A3022 RMK A01 T00151033  RH  071%=      5-min Rain = 0
KCO2 191234Z 33011KT 02/M03 A3022 RMK A01 T00151033  RH  071%=      5-min Rain = 0
KCO2 191235Z 33012KT 02/M03 A3022 RMK A01 T00151033  RH  071%=      5-min Rain = 0
KCO2 191236Z 33010KT 02/M03 A3022 RMK A01 T00151032  RH  071%=      5-min Rain = 0
KCO2 191237Z 33014G20KT 01/M03 A3022 RMK A01 T00141033  RH  071%=      5-min Rain = 0
KCO2 191238Z 33017KT 01/M03 A3022 RMK A01 T00141033  RH  071%=      5-min Rain = 0
KCO2 191239Z 33013G19KT 02/M03 A3022 RMK A01 T00151033  RH  070%=      5-min Rain = 0
KCO2 191240Z 33012KT 02/M03 A3022 RMK A01 T00151034  RH  070%=      5-min Rain = 0
KCO2 191241Z 34014G19KT 02/M03 A3022 RMK A01 T00161033  RH  070%=      5-min Rain = 0
KCO2 191242Z 33013KT 02/M03 A3022 RMK A01 T00151034  RH  070%=      5-min Rain = 0
KCO2 191243Z 33015KT 02/M03 A3022 RMK A01 T00151034  RH  070%=      5-min Rain = 0
KCO2 191244Z 33018KT 02/M03 A3022 RMK A01 T00151034  RH  070%=      5-min Rain = 0
KCO2 191245Z 33018KT 02/M04 A3022 RMK A01 T00151035  RH  069%=      5-min Rain = 0
KCO2 191246Z 33017KT 02/M03 A3022 RMK A01 T00161034  RH  069%=      5-min Rain = 0
KCO2 191247Z 33014G19KT 02/M04 A3022 RMK A01 T00161035  RH  069%=      5-min Rain = 0
KCO2 191248Z 33013KT 02/M04 A3022 RMK A01 T00151035  RH  069%=      5-min Rain = 0
KCO2 191249Z 34013KT 02/M04 A3022 RMK A01 T00151035  RH  069%=      5-min Rain = 0
KCO2 191250Z 33014G21KT 02/M04 A3022 RMK A01 T00151035  RH  070%=      5-min Rain = 0
KCO2 191251Z 34016G21KT 02/M04 A3022 RMK A01 T00151035  RH  070%=      5-min Rain = 0
KCO2 191252Z 33015KT 01/M04 A3022 RMK A01 T00141035  RH  069%=      5-min Rain = 0
KCO2 191253Z 33015G20KT 01/M04 A3022 RMK A01 T00141036  RH  069%=      5-min Rain = 0
KCO2 191254Z 33013KT 01/M04 A3023 RMK A01 T00141036  RH  069%=      5-min Rain = 0
KCO2 191255Z 34014KT 01/M04 A3023 RMK A01 T00141036  RH  069%=      5-min Rain = 0
KCO2 191256Z 34014KT 01/M04 A3023 RMK A01 T00141036  RH  070%=      5-min Rain = 0
KCO2 191257Z 34015G21KT 01/M04 A3023 RMK A01 T00141036  RH  070%=      5-min Rain = 0
KCO2 191258Z 34014KT 01/M04 A3023 RMK A01 T00131036  RH  069%=      5-min Rain = 0
KCO2 191259Z 34011KT 01/M04 A3023 RMK A01 T00141037  RH  069%=      5-min Rain = 0
KCO2 191300Z 34012KT 01/M04 A3023 RMK A01 T00131037  RH  069%=      5-min Rain = 0
KCO2 191301Z 34012G18KT 01/M04 A3023 RMK A01 T00121037  RH  070%=      5-min Rain = 0
KCO2 191302Z 34013G19KT 01/M04 A3023 RMK A01 T00121037  RH  070%=      5-min Rain = 0
KCO2 191303Z 34013KT 01/M04 A3023 RMK A01 T00121037  RH  070%=      5-min Rain = 0
KCO2 191304Z 34015KT 01/M04 A3024 RMK A01 T00121037  RH  070%=      5-min Rain = 0
KCO2 191305Z 34014KT 01/M04 A3024 RMK A01 T00121037  RH  070%=      5-min Rain = 0
KCO2 191306Z 33012KT 01/M04 A3024 RMK A01 T00121038  RH  069%=      5-min Rain = 0
KCO2 191307Z 34012KT 01/M04 A3024 RMK A01 T00121038  RH  069%=      5-min Rain = 0
KCO2 191308Z 34015KT 01/M04 A3024 RMK A01 T00121038  RH  069%=      5-min Rain = 0
KCO2 191309Z 34015KT 01/M04 A3024 RMK A01 T00121037  RH  069%=      5-min Rain = 0
KCO2 191310Z 33013KT 01/M04 A3024 RMK A01 T00121038  RH  069%=      5-min Rain = 0
KCO2 191311Z 34013KT 01/M04 A3024 RMK A01 T00121038  RH  069%=      5-min Rain = 0
KCO2 191312Z 34013KT 01/M04 A3024 RMK A01 T00121038  RH  069%=      5-min Rain = 0
KCO2 191313Z 33011KT 01/M04 A3024 RMK A01 T00121038  RH  069%=      5-min Rain = 0
KCO2 191314Z 33013G18KT 01/M04 A3024 RMK A01 T00111038  RH  070%=      5-min Rain = 0
KCO2 191315Z 33013KT 01/M04 A3025 RMK A01 T00111038  RH  070%=      5-min Rain = 0
KCO2 191316Z 34012KT 01/M04 A3025 RMK A01 T00111038  RH  070%=      5-min Rain = 0
KCO2 191317Z 34013KT 01/M04 A3025 RMK A01 T00111038  RH  070%=      5-min Rain = 0
KCO2 191318Z 34011KT 01/M04 A3025 RMK A01 T00111038  RH  070%=      5-min Rain = 0
KCO2 191319Z 34010KT 01/M04 A3025 RMK A01 T00101038  RH  070%=      5-min Rain = 0
KCO2 191320Z 33009KT 01/M04 A3025 RMK A01 T00101038  RH  070%=      5-min Rain = 0
KCO2 191321Z 33010KT 01/M04 A3025 RMK A01 T00091038  RH  071%=      5-min Rain = 0
KCO2 191322Z 34010KT 01/M04 A3025 RMK A01 T00091038  RH  071%=      5-min Rain = 0
KCO2 191323Z 34011G16KT 01/M04 A3025 RMK A01 T00091038  RH  071%=      5-min Rain = 0
KCO2 191324Z 34011KT 01/M04 A3025 RMK A01 T00081038  RH  071%=      5-min Rain = 0
KCO2 191325Z 34011KT 01/M04 A3025 RMK A01 T00091038  RH  071%=      5-min Rain = 0
KCO2 191326Z 34011KT 01/M04 A3025 RMK A01 T00091038  RH  071%=      5-min Rain = 0
KCO2 191327Z 34009KT 01/M04 A3025 RMK A01 T00091038  RH  071%=      5-min Rain = 0
KCO2 191328Z 34009KT 01/M04 A3026 RMK A01 T00091038  RH  071%=      5-min Rain = 0
KCO2 191329Z 33009KT 01/M04 A3026 RMK A01 T00081038  RH  071%=      5-min Rain = 0
KCO2 191330Z 34008KT 01/M04 A3026 RMK A01 T00081038  RH  071%=      5-min Rain = 0
KCO2 191331Z 34008KT 01/M04 A3026 RMK A01 T00071039  RH  072%=      5-min Rain = 0
KCO2 191332Z 33008KT 01/M04 A3026 RMK A01 T00071038  RH  072%=      5-min Rain = 0
KCO2 191333Z 33008KT 01/M04 A3026 RMK A01 T00071038  RH  072%=      5-min Rain = 0
KCO2 191334Z 33007KT 01/M04 A3026 RMK A01 T00061038  RH  072%=      5-min Rain = 0
KCO2 191335Z 33008KT 01/M04 A3026 RMK A01 T00061038  RH  073%=      5-min Rain = 0
KCO2 191336Z 33008KT 01/M04 A3026 RMK A01 T00051038  RH  073%=      5-min Rain = 0
KCO2 191337Z 33009KT 01/M04 A3026 RMK A01 T00051038  RH  073%=      5-min Rain = 0
KCO2 191338Z 33007KT 01/M04 A3026 RMK A01 T00051037  RH  073%=      5-min Rain = 0
KCO2 191339Z 33008KT 01/M04 A3026 RMK A01 T00051037  RH  073%=      5-min Rain = 0
KCO2 191340Z 33007KT 00/M04 A3026 RMK A01 T00041038  RH  074%=      5-min Rain = 0
KCO2 191341Z 33008KT 00/M04 A3026 RMK A01 T00031038  RH  074%=      5-min Rain = 0
KCO2 191342Z 33008KT 00/M04 A3026 RMK A01 T00031038  RH  074%=      5-min Rain = 0
KCO2 191343Z 33008KT 00/M04 A3026 RMK A01 T00031037  RH  074%=      5-min Rain = 0
KCO2 191344Z 33008KT 00/M04 A3026 RMK A01 T00031037  RH  074%=      5-min Rain = 0
KCO2 191345Z 33007KT 00/M04 A3026 RMK A01 T00031037  RH  074%=      5-min Rain = 0
KCO2 191346Z 33007KT 00/M04 A3026 RMK A01 T00031037  RH  074%=      5-min Rain = 0
KCO2 191347Z 34008KT 00/M04 A3026 RMK A01 T00031037  RH  075%=      5-min Rain = 0
KCO2 191348Z 33008KT 00/M04 A3026 RMK A01 T00031037  RH  075%=      5-min Rain = 0
KCO2 191349Z 34007KT 00/M04 A3026 RMK A01 T00031036  RH  075%=      5-min Rain = 0
KCO2 191350Z 33007KT 00/M04 A3026 RMK A01 T00031037  RH  075%=      5-min Rain = 0
KCO2 191351Z 34008KT 00/M04 A3026 RMK A01 T00031037  RH  074%=      5-min Rain = 0
KCO2 191352Z 34008KT 00/M04 A3026 RMK A01 T00031037  RH  074%=      5-min Rain = 0
KCO2 191353Z 34008KT 00/M04 A3026 RMK A01 T00041036  RH  074%=      5-min Rain = 0
KCO2 191354Z 33007KT 00/M04 A3026 RMK A01 T00041037  RH  074%=      5-min Rain = 0
KCO2 191355Z 33008KT 00/M04 A3026 RMK A01 T00041037  RH  074%=      5-min Rain = 0
KCO2 191356Z 33008KT 00/M04 A3026 RMK A01 T00041037  RH  074%=      5-min Rain = 0
KCO2 191357Z 33008KT 00/M04 A3027 RMK A01 T00041037  RH  074%=      5-min Rain = 0
KCO2 191358Z 34008KT 00/M04 A3027 RMK A01 T00041037  RH  074%=      5-min Rain = 0
KCO2 191359Z 33007KT 00/M04 A3027 RMK A01 T00041037  RH  074%=      5-min Rain = 0
KCO2 191400Z 33007KT 00/M04 A3027 RMK A01 T00041037  RH  074%=      5-min Rain = 0
KCO2 191401Z 33007KT 00/M04 A3027 RMK A01 T00041037  RH  074%=      5-min Rain = 0
KCO2 191402Z 33007KT 00/M04 A3027 RMK A01 T00041037  RH  074%=      5-min Rain = 0
KCO2 191403Z 34008KT 01/M04 A3027 RMK A01 T00051036  RH  074%=      5-min Rain = 0
KCO2 191404Z 34007KT 01/M04 A3027 RMK A01 T00051036  RH  074%=      5-min Rain = 0
KCO2 191405Z 34007KT 01/M04 A3027 RMK A01 T00051037  RH  073%=      5-min Rain = 0
KCO2 191406Z 34006KT 01/M04 A3027 RMK A01 T00061036  RH  073%=      5-min Rain = 0
KCO2 191407Z 34007KT 01/M04 A3027 RMK A01 T00061036  RH  073%=      5-min Rain = 0
KCO2 191408Z 33007KT 01/M04 A3027 RMK A01 T00061036  RH  073%=      5-min Rain = 0
KCO2 191409Z 33006KT 01/M04 A3027 RMK A01 T00061036  RH  073%=      5-min Rain = 0
KCO2 191410Z 33006KT 01/M04 A3027 RMK A01 T00061036  RH  073%=      5-min Rain = 0
KCO2 191411Z 32007KT 01/M04 A3028 RMK A01 T00061036  RH  073%=      5-min Rain = 0
KCO2 191412Z 32007KT 01/M04 A3028 RMK A01 T00071036  RH  073%=      5-min Rain = 0
KCO2 191413Z 32006KT 01/M04 A3028 RMK A01 T00071036  RH  073%=      5-min Rain = 0
KCO2 191414Z 33007KT 01/M04 A3028 RMK A01 T00071036  RH  073%=      5-min Rain = 0
KCO2 191415Z 32007KT 01/M04 A3028 RMK A01 T00081035  RH  073%=      5-min Rain = 0
KCO2 191416Z 32007KT 01/M04 A3028 RMK A01 T00081035  RH  073%=      5-min Rain = 0
KCO2 191417Z 32007KT 01/M04 A3028 RMK A01 T00091035  RH  073%=      5-min Rain = 0
KCO2 191418Z 32007KT 01/M04 A3028 RMK A01 T00091035  RH  072%=      5-min Rain = 0
KCO2 191419Z 32007KT 01/M04 A3028 RMK A01 T00101035  RH  072%=      5-min Rain = 0
KCO2 191420Z 32007KT 01/M04 A3029 RMK A01 T00101035  RH  072%=      5-min Rain = 0
KCO2 191421Z 32006KT 01/M03 A3029 RMK A01 T00111034  RH  072%=      5-min Rain = 0
KCO2 191422Z 32008KT 01/M03 A3029 RMK A01 T00111034  RH  072%=      5-min Rain = 0
KCO2 191423Z 32007KT 01/M03 A3029 RMK A01 T00111034  RH  071%=      5-min Rain = 0
KCO2 191424Z 32006KT 01/M04 A3029 RMK A01 T00121035  RH  071%=      5-min Rain = 0
KCO2 191425Z 33007KT 01/M04 A3029 RMK A01 T00121035  RH  071%=      5-min Rain = 0
KCO2 191426Z 32009KT 01/M03 A3029 RMK A01 T00131034  RH  071%=      5-min Rain = 0
KCO2 191427Z 32008KT 01/M04 A3029 RMK A01 T00131035  RH  070%=      5-min Rain = 0
KCO2 191428Z 32008KT 01/M04 A3029 RMK A01 T00141035  RH  070%=      5-min Rain = 0
KCO2 191429Z 32010KT 01/M04 A3029 RMK A01 T00141035  RH  069%=      5-min Rain = 0
KCO2 191430Z 32008KT 02/M04 A3029 RMK A01 T00151035  RH  069%=      5-min Rain = 0
KCO2 191431Z 32006KT 02/M04 A3029 RMK A01 T00151035  RH  069%=      5-min Rain = 0
KCO2 191432Z 32009KT 02/M03 A3029 RMK A01 T00161034  RH  069%=      5-min Rain = 0
KCO2 191433Z 32010KT 02/M04 A3029 RMK A01 T00171035  RH  069%=      5-min Rain = 0
KCO2 191434Z 32012KT 02/M04 A3029 RMK A01 T00171035  RH  068%=      5-min Rain = 0
KCO2 191435Z 32009KT 02/M04 A3029 RMK A01 T00181036  RH  068%=      5-min Rain = 0
KCO2 191436Z 32010KT 02/M04 A3029 RMK A01 T00181035  RH  068%=      5-min Rain = 0
KCO2 191437Z 32010KT 02/M04 A3029 RMK A01 T00191035  RH  068%=      5-min Rain = 0
KCO2 191438Z 32010KT 02/M04 A3029 RMK A01 T00191035  RH  067%=      5-min Rain = 0
KCO2 191439Z 32013KT 02/M04 A303 RMK A01 T00201035  RH  067%=      5-min Rain = 0
KCO2 191440Z 32010KT 02/M04 A303 RMK A01 T00201035  RH  067%=      5-min Rain = 0
KCO2 191441Z 32009KT 02/M04 A303 RMK A01 T00211035  RH  067%=      5-min Rain = 0
KCO2 191442Z 31010KT 02/M03 A303 RMK A01 T00211034  RH  067%=      5-min Rain = 0
KCO2 191443Z 32013KT 02/M03 A303 RMK A01 T00221034  RH  066%=      5-min Rain = 0
KCO2 191444Z 32013KT 02/M04 A303 RMK A01 T00221035  RH  066%=      5-min Rain = 0
KCO2 191445Z 32012G17KT 02/M04 A303 RMK A01 T00221035  RH  066%=      5-min Rain = 0
KCO2 191446Z 32012KT 02/M03 A303 RMK A01 T00231034  RH  066%=      5-min Rain = 0
KCO2 191447Z 32012KT 02/M03 A3031 RMK A01 T00241034  RH  066%=      5-min Rain = 0
KCO2 191448Z 32011G16KT 02/M03 A3031 RMK A01 T00241034  RH  065%=      5-min Rain = 0
KCO2 191449Z 32011KT 03/M03 A3031 RMK A01 T00251034  RH  065%=      5-min Rain = 0
KCO2 191450Z 31012KT 03/M03 A3031 RMK A01 T00251034  RH  065%=      5-min Rain = 0
KCO2 191451Z 31015KT 03/M03 A3031 RMK A01 T00261034  RH  065%=      5-min Rain = 0
KCO2 191452Z 31012KT 03/M03 A3031 RMK A01 T00261034  RH  065%=      5-min Rain = 0
KCO2 191453Z 32012KT 03/M03 A3031 RMK A01 T00271033  RH  065%=      5-min Rain = 0
KCO2 191454Z 31011KT 03/M03 A3031 RMK A01 T00271033  RH  065%=      5-min Rain = 0
KCO2 191455Z 31013G18KT 03/M03 A3031 RMK A01 T00281032  RH  064%=      5-min Rain = 0
KCO2 191456Z 32014KT 03/M03 A3031 RMK A01 T00281033  RH  064%=      5-min Rain = 0
KCO2 191457Z 32012KT 03/M03 A3031 RMK A01 T00281034  RH  064%=      5-min Rain = 0
KCO2 191458Z 32012KT 03/M03 A3031 RMK A01 T00291033  RH  064%=      5-min Rain = 0
KCO2 191459Z 32012KT 03/M03 A3031 RMK A01 T00291033  RH  064%=      5-min Rain = 0
KCO2 191500Z 31011KT 03/M03 A3031 RMK A01 T00291033  RH  064%=      5-min Rain = 0
KCO2 191501Z 31014G19KT 03/M03 A3031 RMK A01 T00301033  RH  063%=      5-min Rain = 0
KCO2 191502Z 32015G20KT 03/M03 A3031 RMK A01 T00301033  RH  063%=      5-min Rain = 0
KCO2 191503Z 32014G19KT 03/M03 A3031 RMK A01 T00301033  RH  063%=      5-min Rain = 0
KCO2 191504Z 32016KT 03/M03 A3031 RMK A01 T00311034  RH  063%=      5-min Rain = 0
KCO2 191505Z 32015G20KT 03/M03 A3031 RMK A01 T00311033  RH  063%=      5-min Rain = 0
KCO2 191506Z 32015KT 03/M03 A3031 RMK A01 T00321033  RH  063%=      5-min Rain = 0
KCO2 191507Z 32013KT 03/M03 A3031 RMK A01 T00321033  RH  062%=      5-min Rain = 0
KCO2 191508Z 33013KT 03/M03 A3031 RMK A01 T00331033  RH  062%=      5-min Rain = 0
KCO2 191509Z 33013KT 03/M03 A3031 RMK A01 T00341032  RH  062%=      5-min Rain = 0
KCO2 191510Z 33010KT 04/M03 A3031 RMK A01 T00351032  RH  062%=      5-min Rain = 0
KCO2 191511Z 32012KT 04/M03 A3031 RMK A01 T00361030  RH  062%=      5-min Rain = 0
KCO2 191512Z 33015KT 04/M03 A3032 RMK A01 T00371031  RH  061%=      5-min Rain = 0
KCO2 191513Z 33013KT 04/M03 A3032 RMK A01 T00371032  RH  060%=      5-min Rain = 0
KCO2 191514Z 33015G20KT 04/M03 A3032 RMK A01 T00371032  RH  061%=      5-min Rain = 0
KCO2 191515Z 33017G22KT 04/M03 A3032 RMK A01 T00371033  RH  060%=      5-min Rain = 0
KCO2 191516Z 33017KT 04/M03 A3032 RMK A01 T00361034  RH  060%=      5-min Rain = 0
KCO2 191517Z 33020KT 04/M03 A3032 RMK A01 T00361034  RH  060%=      5-min Rain = 0
KCO2 191518Z 33015G21KT 04/M04 A3032 RMK A01 T00361035  RH  060%=      5-min Rain = 0
KCO2 191519Z 33014KT 04/M03 A3032 RMK A01 T00371033  RH  060%=      5-min Rain = 0
KCO2 191520Z 32015KT 04/M03 A3032 RMK A01 T00381032  RH  060%=      5-min Rain = 0
KCO2 191521Z 33010KT 04/M03 A3032 RMK A01 T00391031  RH  060%=      5-min Rain = 0
KCO2 191522Z 33012G17KT 04/M03 A3032 RMK A01 T00411030  RH  060%=      5-min Rain = 0
KCO2 191523Z 33013KT 04/M03 A3032 RMK A01 T00421030  RH  059%=      5-min Rain = 0
KCO2 191524Z 33015KT 04/M03 A3033 RMK A01 T00421031  RH  059%=      5-min Rain = 0
KCO2 191525Z 34017KT 04/M03 A3033 RMK A01 T00421032  RH  059%=      5-min Rain = 0
KCO2 191526Z 33017KT 04/M03 A3033 RMK A01 T00411032  RH  059%=      5-min Rain = 0
KCO2 191527Z 33015KT 04/M03 A3033 RMK A01 T00411032  RH  059%=      5-min Rain = 0
KCO2 191528Z 33015KT 04/M03 A3033 RMK A01 T00411032  RH  059%=      5-min Rain = 0
KCO2 191529Z 34013G19KT 04/M03 A3033 RMK A01 T00411032  RH  059%=      5-min Rain = 0
KCO2 191530Z 34018KT 04/M03 A3033 RMK A01 T00421032  RH  059%=      5-min Rain = 0
KCO2 191531Z 34017KT 04/M03 A3033 RMK A01 T00421032  RH  058%=      5-min Rain = 0
KCO2 191532Z 33013KT 04/M03 A3033 RMK A01 T00421032  RH  058%=      5-min Rain = 0
KCO2 191533Z 33015G22KT 04/M03 A3033 RMK A01 T00431031  RH  058%=      5-min Rain = 0
KCO2 191534Z 33013KT 05/M03 A3033 RMK A01 T00451030  RH  058%=      5-min Rain = 0
KCO2 191535Z 33014G20KT 05/M03 A3033 RMK A01 T00461030  RH  058%=      5-min Rain = 0
KCO2 191536Z 33015G22KT 05/M03 A3033 RMK A01 T00461031  RH  057%=      5-min Rain = 0
KCO2 191537Z 33018KT 05/M03 A3033 RMK A01 T00461032  RH  057%=      5-min Rain = 0
KCO2 191538Z 33019KT 05/M03 A3033 RMK A01 T00451033  RH  057%=      5-min Rain = 0
KCO2 191539Z 33018KT 05/M03 A3033 RMK A01 T00451034  RH  057%=      5-min Rain = 0
KCO2 191540Z 33019KT 04/M03 A3033 RMK A01 T00441033  RH  057%=      5-min Rain = 0
KCO2 191541Z 33019KT 05/M04 A3033 RMK A01 T00451035  RH  056%=      5-min Rain = 0
KCO2 191542Z 32018G25KT 05/M04 A3033 RMK A01 T00451035  RH  056%=      5-min Rain = 0
KCO2 191543Z 33017KT 05/M04 A3033 RMK A01 T00451035  RH  056%=      5-min Rain = 0
KCO2 191544Z 33022G27KT 05/M03 A3033 RMK A01 T00461034  RH  056%=      5-min Rain = 0
KCO2 191545Z 33020KT 05/M04 A3034 RMK A01 T00461036  RH  055%=      5-min Rain = 0
KCO2 191546Z 33017G23KT 05/M04 A3034 RMK A01 T00461035  RH  056%=      5-min Rain = 0
KCO2 191547Z 33020G25KT 05/M04 A3034 RMK A01 T00471035  RH  055%=      5-min Rain = 0
KCO2 191548Z 33018KT 05/M04 A3034 RMK A01 T00471035  RH  055%=      5-min Rain = 0
KCO2 191549Z 33017G23KT 05/M04 A3034 RMK A01 T00481036  RH  055%=      5-min Rain = 0
KCO2 191550Z 33016KT 05/M04 A3034 RMK A01 T00491035  RH  055%=      5-min Rain = 0
KCO2 191551Z 34018KT 05/M03 A3034 RMK A01 T00501034  RH  054%=      5-min Rain = 0
KCO2 191552Z 34017KT 05/M04 A3034 RMK A01 T00501036  RH  054%=      5-min Rain = 0
KCO2 191553Z 34016G21KT 05/M04 A3034 RMK A01 T00501036  RH  054%=      5-min Rain = 0
KCO2 191554Z 34019G24KT 05/M04 A3034 RMK A01 T00511036  RH  054%=      5-min Rain = 0
KCO2 191555Z 34020KT 05/M04 A3034 RMK A01 T00511037  RH  053%=      5-min Rain = 0
KCO2 191556Z 33018G24KT 05/M04 A3034 RMK A01 T00501038  RH  053%=      5-min Rain = 0
KCO2 191557Z 35021KT 05/M04 A3034 RMK A01 T00501037  RH  053%=      5-min Rain = 0
KCO2 191558Z 34018G23KT 05/M04 A3034 RMK A01 T00491037  RH  053%=      5-min Rain = 0
KCO2 191559Z 35016G21KT 05/M04 A3034 RMK A01 T00501037  RH  054%=      5-min Rain = 0
KCO2 191600Z 35021G26KT 05/M04 A3034 RMK A01 T00501037  RH  053%=      5-min Rain = 0
KCO2 191601Z 34020G25KT 05/M04 A3035 RMK A01 T00511038  RH  053%=      5-min Rain = 0
KCO2 191602Z 34022KT 05/M04 A3035 RMK A01 T00511038  RH  053%=      5-min Rain = 0
KCO2 191603Z 34020KT 05/M04 A3035 RMK A01 T00501038  RH  053%=      5-min Rain = 0
KCO2 191604Z 34017KT 05/M04 A3035 RMK A01 T00501038  RH  053%=      5-min Rain = 0
KCO2 191605Z 33018G24KT 05/M04 A3035 RMK A01 T00521035  RH  053%=      5-min Rain = 0
KCO2 191606Z 34016KT 05/M04 A3035 RMK A01 T00541036  RH  052%=      5-min Rain = 0
KCO2 191607Z 35020G25KT 06/M04 A3035 RMK A01 T00551036  RH  052%=      5-min Rain = 0
KCO2 191608Z 34018KT 05/M04 A3035 RMK A01 T00541038  RH  051%=      5-min Rain = 0
KCO2 191609Z 33017G22KT 05/M04 A3035 RMK A01 T00541037  RH  052%=      5-min Rain = 0
KCO2 191610Z 33018G23KT 06/M04 A3035 RMK A01 T00551037  RH  051%=      5-min Rain = 0
KCO2 191611Z 34016G23KT 06/M04 A3035 RMK A01 T00561037  RH  051%=      5-min Rain = 0
KCO2 191612Z 34016G21KT 06/M04 A3035 RMK A01 T00571037  RH  051%=      5-min Rain = 0
KCO2 191613Z 34018KT 06/M04 A3035 RMK A01 T00591037  RH  050%=      5-min Rain = 0
KCO2 191614Z 34017KT 06/M04 A3035 RMK A01 T00571039  RH  050%=      5-min Rain = 0
KCO2 191615Z 36016G21KT 06/M04 A3035 RMK A01 T00571038  RH  050%=      5-min Rain = 0
KCO2 191616Z 36019KT 06/M04 A3035 RMK A01 T00571040  RH  050%=      5-min Rain = 0
KCO2 191617Z 34021KT 06/M04 A3035 RMK A01 T00571040  RH  050%=      5-min Rain = 0
KCO2 191618Z 34019KT 06/M04 A3035 RMK A01 T00571040  RH  050%=      5-min Rain = 0
KCO2 191619Z 33021KT 06/M04 A3035 RMK A01 T00571038  RH  050%=      5-min Rain = 0
KCO2 191620Z 33019KT 06/M04 A3035 RMK A01 T00581039  RH  050%=      5-min Rain = 0
KCO2 191621Z 34017KT 06/M04 A3035 RMK A01 T00591039  RH  050%=      5-min Rain = 0
KCO2 191622Z 34019G24KT 06/M04 A3035 RMK A01 T00611038  RH  049%=      5-min Rain = 0
KCO2 191623Z 34017KT 06/M04 A3035 RMK A01 T00611039  RH  049%=      5-min Rain = 0
KCO2 191624Z 34019G25KT 06/M04 A3035 RMK A01 T00611038  RH  049%=      5-min Rain = 0
KCO2 191625Z 34018KT 06/M04 A3035 RMK A01 T00611039  RH  049%=      5-min Rain = 0
KCO2 191626Z 34018G25KT 06/M04 A3035 RMK A01 T00611038  RH  049%=      5-min Rain = 0
KCO2 191627Z 34018G23KT 06/M04 A3035 RMK A01 T00611037  RH  049%=      5-min Rain = 0
KCO2 191628Z 35022KT 06/M04 A3035 RMK A01 T00611037  RH  049%=      5-min Rain = 0
KCO2 191629Z 34019G25KT 06/M04 A3035 RMK A01 T00611038  RH  049%=      5-min Rain = 0
KCO2 191630Z 35019G25KT 06/M04 A3035 RMK A01 T00601037  RH  050%=      5-min Rain = 0
KCO2 191631Z 34017KT 06/M04 A3035 RMK A01 T00611036  RH  050%=      5-min Rain = 0
KCO2 191632Z 36020KT 06/M04 A3035 RMK A01 T00611037  RH  050%=      5-min Rain = 0
KCO2 191633Z 34019G24KT 06/M04 A3035 RMK A01 T00601037  RH  050%=      5-min Rain = 0
KCO2 191634Z 34022KT 06/M04 A3035 RMK A01 T00611037  RH  049%=      5-min Rain = 0
KCO2 191635Z 35021G26KT 06/M04 A3035 RMK A01 T00601038  RH  049%=      5-min Rain = 0
KCO2 191636Z 35017KT 06/M04 A3035 RMK A01 T00591038  RH  050%=      5-min Rain = 0
KCO2 191637Z 34020KT 06/M04 A3035 RMK A01 T00601038  RH  050%=      5-min Rain = 0
KCO2 191638Z 34020KT 06/M04 A3035 RMK A01 T00601039  RH  049%=      5-min Rain = 0
KCO2 191639Z 35019G25KT 06/M04 A3035 RMK A01 T00601040  RH  049%=      5-min Rain = 0
KCO2 191640Z 35019G24KT 06/M04 A3035 RMK A01 T00611039  RH  049%=      5-min Rain = 0
KCO2 191641Z 35020G25KT 06/M04 A3035 RMK A01 T00621039  RH  048%=      5-min Rain = 0
KCO2 191642Z 34020KT 06/M04 A3035 RMK A01 T00601040  RH  049%=      5-min Rain = 0
KCO2 191643Z 34017KT 06/M04 A3035 RMK A01 T00601038  RH  049%=      5-min Rain = 0
KCO2 191644Z 34020G25KT 06/M04 A3035 RMK A01 T00611038  RH  049%=      5-min Rain = 0
KCO2 191645Z 34020KT 06/M04 A3035 RMK A01 T00601039  RH  049%=      5-min Rain = 0
KCO2 191646Z 35019G24KT 06/M04 A3035 RMK A01 T00591039  RH  049%=      5-min Rain = 0
KCO2 191647Z 35019KT 06/M04 A3035 RMK A01 T00591039  RH  049%=      5-min Rain = 0
KCO2 191648Z 34017KT 06/M04 A3034 RMK A01 T00601038  RH  049%=      5-min Rain = 0
KCO2 191649Z 35018G24KT 06/M04 A3034 RMK A01 T00631036  RH  049%=      5-min Rain = 0
KCO2 191650Z 34021KT 06/M04 A3034 RMK A01 T00641039  RH  048%=      5-min Rain = 0
KCO2 191651Z 34023G28KT 06/M04 A3034 RMK A01 T00621041  RH  048%=      5-min Rain = 0
KCO2 191652Z 35019G24KT 06/M04 A3034 RMK A01 T00601042  RH  048%=      5-min Rain = 0
KCO2 191653Z 35017KT 06/M04 A3034 RMK A01 T00601040  RH  049%=      5-min Rain = 0
KCO2 191654Z 00017G24KT 06/M04 A3034 RMK A01 T00621039  RH  048%=      5-min Rain = 0
KCO2 191655Z 36017KT 06/M04 A3034 RMK A01 T00631038  RH  048%=      5-min Rain = 0
KCO2 191656Z 35016G22KT 06/M04 A3034 RMK A01 T00641038  RH  048%=      5-min Rain = 0
KCO2 191657Z 34016G21KT 07/M04 A3034 RMK A01 T00671035  RH  048%=      5-min Rain = 0
KCO2 191658Z 34018KT 07/M04 A3034 RMK A01 T00681036  RH  047%=      5-min Rain = 0
KCO2 191659Z 35015KT 07/M04 A3034 RMK A01 T00671036  RH  048%=      5-min Rain = 0
KCO2 191700Z 36015KT 07/M03 A3034 RMK A01 T00691034  RH  048%=      5-min Rain = 0
KCO2 191701Z 35018G23KT 07/M03 A3034 RMK A01 T00711034  RH  047%=      5-min Rain = 0
KCO2 191702Z 35020KT 07/M04 A3034 RMK A01 T00701038  RH  046%=      5-min Rain = 0
KCO2 191703Z 35018G23KT 07/M04 A3034 RMK A01 T00671039  RH  047%=      5-min Rain = 0
KCO2 191704Z 35019G26KT 07/M04 A3034 RMK A01 T00671037  RH  047%=      5-min Rain = 0
KCO2 191705Z 35020G25KT 07/M04 A3034 RMK A01 T00671038  RH  047%=      5-min Rain = 0
KCO2 191706Z 35018KT 07/M04 A3034 RMK A01 T00661038  RH  047%=      5-min Rain = 0
KCO2 191707Z 33017G23KT 07/M04 A3034 RMK A01 T00661037  RH  048%=      5-min Rain = 0
KCO2 191708Z 34017KT 07/M04 A3034 RMK A01 T00671037  RH  048%=      5-min Rain = 0
KCO2 191709Z 33015KT 07/M04 A3034 RMK A01 T00681035  RH  048%=      5-min Rain = 0
KCO2 191710Z 33017KT 07/M04 A3034 RMK A01 T00691035  RH  047%=      5-min Rain = 0
KCO2 191711Z 34017G22KT 07/M04 A3034 RMK A01 T00691036  RH  047%=      5-min Rain = 0
KCO2 191712Z 34015KT 07/M04 A3034 RMK A01 T00701035  RH  047%=      5-min Rain = 0
KCO2 191713Z 34017KT 07/M03 A3034 RMK A01 T00721034  RH  047%=      5-min Rain = 0
KCO2 191714Z 34017G22KT 07/M04 A3034 RMK A01 T00721036  RH  046%=      5-min Rain = 0
KCO2 191715Z 33017KT 07/M04 A3034 RMK A01 T00701036  RH  047%=      5-min Rain = 0
KCO2 191716Z 35019KT 07/M04 A3034 RMK A01 T00711035  RH  047%=      5-min Rain = 0
KCO2 191717Z 34018G23KT 07/M04 A3034 RMK A01 T00731035  RH  046%=      5-min Rain = 0
KCO2 191718Z 34021KT 07/M04 A3034 RMK A01 T00721036  RH  046%=      5-min Rain = 0
KCO2 191719Z 34018KT 07/M04 A3034 RMK A01 T00701037  RH  047%=      5-min Rain = 0
KCO2 191720Z 34018G23KT 07/M04 A3034 RMK A01 T00701035  RH  047%=      5-min Rain = 0
KCO2 191721Z 35015G22KT 07/M04 A3034 RMK A01 T00711036  RH  047%=      5-min Rain = 0
KCO2 191722Z 35021KT 07/M04 A3034 RMK A01 T00721035  RH  047%=      5-min Rain = 0
KCO2 191723Z 35020KT 07/M04 A3034 RMK A01 T00711036  RH  046%=      5-min Rain = 0
KCO2 191724Z 35018KT 07/M04 A3034 RMK A01 T00691037  RH  047%=      5-min Rain = 0
KCO2 191725Z 35012G17KT 07/M03 A3034 RMK A01 T00701034  RH  048%=      5-min Rain = 0
KCO2 191726Z 34016G21KT 07/M03 A3034 RMK A01 T00741032  RH  047%=      5-min Rain = 0
KCO2 191727Z 35019KT 08/M03 A3034 RMK A01 T00751034  RH  046%=      5-min Rain = 0
KCO2 191728Z 35017KT 08/M04 A3034 RMK A01 T00751036  RH  045%=      5-min Rain = 0
KCO2 191729Z 35019KT 07/M04 A3034 RMK A01 T00731036  RH  046%=      5-min Rain = 0
KCO2 191730Z 35017KT 07/M04 A3034 RMK A01 T00731036  RH  046%=      5-min Rain = 0
KCO2 191731Z 35014KT 07/M04 A3034 RMK A01 T00711035  RH  047%=      5-min Rain = 0
KCO2 191732Z 34015KT 08/M03 A3034 RMK A01 T00761031  RH  047%=      5-min Rain = 0
KCO2 191733Z 34017KT 08/M03 A3034 RMK A01 T00761034  RH  045%=      5-min Rain = 0
KCO2 191734Z 34021KT 08/M04 A3034 RMK A01 T00751035  RH  046%=      5-min Rain = 0
KCO2 191735Z 34019KT 07/M04 A3034 RMK A01 T00731037  RH  046%=      5-min Rain = 0
KCO2 191736Z 34020KT 07/M04 A3034 RMK A01 T00731036  RH  046%=      5-min Rain = 0
KCO2 191737Z 35017G22KT 07/M04 A3034 RMK A01 T00721036  RH  046%=      5-min Rain = 0
KCO2 191738Z 34018KT 07/M04 A3034 RMK A01 T00731035  RH  046%=      5-min Rain = 0
KCO2 191739Z 34019KT 07/M04 A3034 RMK A01 T00741035  RH  046%=      5-min Rain = 0
KCO2 191740Z 34018G23KT 08/M04 A3034 RMK A01 T00761035  RH  045%=      5-min Rain = 0
KCO2 191741Z 34018KT 08/M04 A3034 RMK A01 T00751036  RH  045%=      5-min Rain = 0
KCO2 191742Z 34018G23KT 07/M04 A3034 RMK A01 T00741035  RH  046%=      5-min Rain = 0
KCO2 191743Z 34014G19KT 08/M04 A3034 RMK A01 T00751035  RH  046%=      5-min Rain = 0
KCO2 191744Z 35017G22KT 08/M03 A3034 RMK A01 T00781032  RH  046%=      5-min Rain = 0
KCO2 191745Z 35014G21KT 08/M03 A3034 RMK A01 T00801034  RH  045%=      5-min Rain = 0
KCO2 191746Z 35017KT 08/M03 A3034 RMK A01 T00801034  RH  044%=      5-min Rain = 0
KCO2 191747Z 36016KT 08/M04 A3034 RMK A01 T00781035  RH  045%=      5-min Rain = 0
KCO2 191748Z 35014KT 08/M03 A3034 RMK A01 T00771034  RH  045%=      5-min Rain = 0
KCO2 191749Z 35015KT 08/M03 A3034 RMK A01 T00801032  RH  045%=      5-min Rain = 0
KCO2 191750Z 34018KT 08/M03 A3034 RMK A01 T00801033  RH  045%=      5-min Rain = 0
KCO2 191751Z 33016KT 08/M03 A3034 RMK A01 T00791033  RH  045%=      5-min Rain = 0
KCO2 191752Z 34014KT 08/M03 A3034 RMK A01 T00781034  RH  045%=      5-min Rain = 0
KCO2 191753Z 35014KT 08/M03 A3034 RMK A01 T00791032  RH  045%=      5-min Rain = 0
KCO2 191754Z 34016KT 08/M03 A3034 RMK A01 T00811032  RH  045%=      5-min Rain = 0
KCO2 191755Z 33014G19KT 08/M03 A3034 RMK A01 T00801033  RH  045%=      5-min Rain = 0
KCO2 191756Z 33017KT 08/M03 A3034 RMK A01 T00821033  RH  044%=      5-min Rain = 0
KCO2 191757Z 33018KT 08/M04 A3034 RMK A01 T00811036  RH  043%=      5-min Rain = 0
KCO2 191758Z 34016G22KT 08/M04 A3034 RMK A01 T00781036  RH  044%=      5-min Rain = 0
KCO2 191759Z 34015KT 08/M04 A3034 RMK A01 T00781035  RH  045%=      5-min Rain = 0
KCO2 191800Z 35018G23KT 08/M03 A3034 RMK A01 T00791034  RH  044%=      5-min Rain = 0
KCO2 191801Z 35018KT 08/M04 A3034 RMK A01 T00791035  RH  044%=      5-min Rain = 0
KCO2 191802Z 34015G20KT 08/M04 A3034 RMK A01 T00781035  RH  045%=      5-min Rain = 0
KCO2 191803Z 33019G24KT 08/M03 A3034 RMK A01 T00811033  RH  044%=      5-min Rain = 0
KCO2 191804Z 33017KT 08/M03 A3034 RMK A01 T00821034  RH  044%=      5-min Rain = 0
KCO2 191805Z 33013G18KT 08/M03 A3034 RMK A01 T00821034  RH  044%=      5-min Rain = 0
KCO2 191806Z 34016G22KT 08/M03 A3034 RMK A01 T00841032  RH  044%=      5-min Rain = 0
KCO2 191807Z 34017KT 09/M04 A3034 RMK A01 T00851035  RH  043%=      5-min Rain = 0
KCO2 191808Z 34014G19KT 08/M04 A3034 RMK A01 T00811037  RH  043%=      5-min Rain = 0
KCO2 191809Z 34019KT 08/M03 A3034 RMK A01 T00821034  RH  044%=      5-min Rain = 0
KCO2 191810Z 34019KT 08/M04 A3034 RMK A01 T00821036  RH  043%=      5-min Rain = 0
KCO2 191811Z 34016KT 08/M04 A3034 RMK A01 T00811035  RH  044%=      5-min Rain = 0
KCO2 191812Z 35017KT 08/M03 A3034 RMK A01 T00831034  RH  044%=      5-min Rain = 0
KCO2 191813Z 35020KT 08/M04 A3034 RMK A01 T00841036  RH  042%=      5-min Rain = 0
KCO2 191814Z 34017KT 08/M04 A3034 RMK A01 T00821039  RH  042%=      5-min Rain = 0
KCO2 191815Z 35015KT 08/M04 A3034 RMK A01 T00811036  RH  043%=      5-min Rain = 0
KCO2 191816Z 36015KT 08/M04 A3033 RMK A01 T00831036  RH  043%=      5-min Rain = 0
KCO2 191817Z 34014KT 08/M04 A3033 RMK A01 T00841035  RH  043%=      5-min Rain = 0
KCO2 191818Z 34016KT 09/M04 A3033 RMK A01 T00861035  RH  042%=      5-min Rain = 0
KCO2 191819Z 35014G20KT 08/M04 A3033 RMK A01 T00841035  RH  043%=      5-min Rain = 0
KCO2 191820Z 33016G22KT 09/M03 A3033 RMK A01 T00861034  RH  043%=      5-min Rain = 0
KCO2 191821Z 33015KT 09/M04 A3033 RMK A01 T00851036  RH  042%=      5-min Rain = 0
KCO2 191822Z 35013KT 08/M04 A3033 RMK A01 T00841036  RH  042%=      5-min Rain = 0
KCO2 191823Z 36014KT 08/M04 A3033 RMK A01 T00841035  RH  043%=      5-min Rain = 0
KCO2 191824Z 36016KT 08/M04 A3033 RMK A01 T00841035  RH  043%=      5-min Rain = 0
KCO2 191825Z 00013KT 08/M04 A3033 RMK A01 T00841036  RH  043%=      5-min Rain = 0
KCO2 191826Z 36012KT 08/M03 A3033 RMK A01 T00841034  RH  043%=      5-min Rain = 0
KCO2 191827Z 00012KT 09/M03 A3033 RMK A01 T00881032  RH  043%=      5-min Rain = 0
KCO2 191828Z 35013KT 09/M03 A3033 RMK A01 T00911031  RH  042%=      5-min Rain = 0
KCO2 191829Z 35012KT 09/M03 A3033 RMK A01 T00921032  RH  041%=      5-min Rain = 0
KCO2 191830Z 34014G19KT 09/M03 A3033 RMK A01 T00911033  RH  042%=      5-min Rain = 0
KCO2 191831Z 34013KT 09/M03 A3033 RMK A01 T00921032  RH  041%=      5-min Rain = 0
KCO2 191832Z 32013KT 09/M04 A3033 RMK A01 T00891035  RH  042%=      5-min Rain = 0
KCO2 191833Z 36012KT 09/M03 A3033 RMK A01 T00901032  RH  042%=      5-min Rain = 0
KCO2 191834Z 35012KT 09/M03 A3033 RMK A01 T00911032  RH  042%=      5-min Rain = 0
KCO2 191835Z 34014KT 09/M03 A3033 RMK A01 T00911032  RH  042%=      5-min Rain = 0
KCO2 191836Z 34013KT 09/M03 A3033 RMK A01 T00911032  RH  042%=      5-min Rain = 0
KCO2 191837Z 33012KT 09/M03 A3033 RMK A01 T00891034  RH  042%=      5-min Rain = 0
KCO2 191838Z 34016G21KT 09/M03 A3033 RMK A01 T00891033  RH  042%=      5-min Rain = 0
KCO2 191839Z 34015KT 09/M03 A3033 RMK A01 T00921033  RH  041%=      5-min Rain = 0
KCO2 191840Z 32014KT 09/M03 A3032 RMK A01 T00931034  RH  041%=      5-min Rain = 0
KCO2 191841Z 33015KT 09/M04 A3032 RMK A01 T00941035  RH  040%=      5-min Rain = 0
KCO2 191842Z 36013KT 09/M03 A3032 RMK A01 T00931034  RH  041%=      5-min Rain = 0
KCO2 191843Z 35013KT 09/M03 A3032 RMK A01 T00941034  RH  040%=      5-min Rain = 0
KCO2 191844Z 34012KT 09/M03 A3032 RMK A01 T00941033  RH  041%=      5-min Rain = 0
KCO2 191845Z 34016KT 09/M03 A3032 RMK A01 T00941034  RH  040%=      5-min Rain = 0
KCO2 191846Z 33016KT 10/M03 A3032 RMK A01 T00951034  RH  040%=      5-min Rain = 0
KCO2 191847Z 33018KT 10/M03 A3032 RMK A01 T00971034  RH  040%=      5-min Rain = 0
KCO2 191848Z 33015KT 10/M04 A3032 RMK A01 T00961036  RH  039%=      5-min Rain = 0
KCO2 191849Z 34012KT 10/M03 A3032 RMK A01 T00961034  RH  040%=      5-min Rain = 0
KCO2 191850Z 34010KT 10/M03 A3032 RMK A01 T00981033  RH  040%=      5-min Rain = 0
KCO2 191851Z 35013G18KT 10/M03 A3032 RMK A01 T01011031  RH  039%=      5-min Rain = 0
KCO2 191852Z 34016KT 10/M03 A3032 RMK A01 T01021032  RH  039%=      5-min Rain = 0
KCO2 191853Z 34016KT 10/M03 A3032 RMK A01 T01001034  RH  039%=      5-min Rain = 0
KCO2 191854Z 33015G21KT 10/M03 A3032 RMK A01 T00991033  RH  039%=      5-min Rain = 0
KCO2 191855Z 33017KT 10/M03 A3032 RMK A01 T00991034  RH  039%=      5-min Rain = 0
KCO2 191856Z 34013KT 10/M04 A3032 RMK A01 T00971036  RH  039%=      5-min Rain = 0
KCO2 191857Z 34011G16KT 10/M03 A3031 RMK A01 T00981033  RH  040%=      5-min Rain = 0
KCO2 191858Z 34013KT 10/M03 A3031 RMK A01 T01011030  RH  040%=      5-min Rain = 0
KCO2 191859Z 34015KT 10/M03 A3031 RMK A01 T01031032  RH  038%=      5-min Rain = 0
KCO2 191900Z 33015KT 10/M03 A3031 RMK A01 T01011034  RH  038%=      5-min Rain = 0
KCO2 191901Z 33015KT 10/M03 A3031 RMK A01 T01001033  RH  039%=      5-min Rain = 0
KCO2 191902Z 34015KT 10/M03 A3031 RMK A01 T01001033  RH  039%=      5-min Rain = 0
KCO2 191903Z 34012G17KT 10/M03 A3031 RMK A01 T00991033  RH  039%=      5-min Rain = 0
KCO2 191904Z 35012KT 10/M03 A3031 RMK A01 T01011032  RH  039%=      5-min Rain = 0
KCO2 191905Z 35012G21KT 11/M03 A3031 RMK A01 T01051031  RH  038%=      5-min Rain = 0
KCO2 191906Z 34016KT 11/M03 A3031 RMK A01 T01071032  RH  038%=      5-min Rain = 0
KCO2 191907Z 33018KT 10/M03 A3031 RMK A01 T01041034  RH  038%=      5-min Rain = 0
KCO2 191908Z 33012KT 10/M04 A3031 RMK A01 T01011035  RH  038%=      5-min Rain = 0
KCO2 191909Z 34014KT 10/M03 A3031 RMK A01 T01011034  RH  038%=      5-min Rain = 0
KCO2 191910Z 34014KT 10/M03 A3031 RMK A01 T01001033  RH  039%=      5-min Rain = 0
KCO2 191911Z 34014G21KT 10/M03 A3031 RMK A01 T01001034  RH  039%=      5-min Rain = 0
KCO2 191912Z 36016KT 10/M03 A3031 RMK A01 T01001034  RH  039%=      5-min Rain = 0
KCO2 191913Z 00015KT 10/M03 A3031 RMK A01 T01021033  RH  039%=      5-min Rain = 0
KCO2 191914Z 34017KT 10/M03 A3031 RMK A01 T01021033  RH  038%=      5-min Rain = 0
KCO2 191915Z 34017KT 10/M03 A303 RMK A01 T01031034  RH  038%=      5-min Rain = 0
KCO2 191916Z 34014KT 10/M04 A3031 RMK A01 T01001035  RH  038%=      5-min Rain = 0
KCO2 191917Z 34012KT 10/M03 A3031 RMK A01 T01021032  RH  039%=      5-min Rain = 0
KCO2 191918Z 35011KT 11/M03 A303 RMK A01 T01061030  RH  039%=      5-min Rain = 0
KCO2 191919Z 35017KT 11/M03 A303 RMK A01 T01081031  RH  038%=      5-min Rain = 0
KCO2 191920Z 34013KT 11/M04 A303 RMK A01 T01051035  RH  037%=      5-min Rain = 0
KCO2 191921Z 35015KT 11/M03 A303 RMK A01 T01051033  RH  038%=      5-min Rain = 0
KCO2 191922Z 34013KT 11/M03 A303 RMK A01 T01071033  RH  037%=      5-min Rain = 0
KCO2 191923Z 34015KT 11/M03 A303 RMK A01 T01091031  RH  037%=      5-min Rain = 0
KCO2 191924Z 34017KT 11/M03 A303 RMK A01 T01091032  RH  037%=      5-min Rain = 0
KCO2 191925Z 34016KT 11/M03 A303 RMK A01 T01071034  RH  037%=      5-min Rain = 0
KCO2 191926Z 34011KT 10/M04 A303 RMK A01 T01041035  RH  038%=      5-min Rain = 0
KCO2 191927Z 35014G19KT 11/M03 A303 RMK A01 T01061031  RH  038%=      5-min Rain = 0
KCO2 191928Z 01014KT 11/M03 A303 RMK A01 T01061033  RH  037%=      5-min Rain = 0
KCO2 191929Z 01012KT 11/M03 A303 RMK A01 T01061033  RH  038%=      5-min Rain = 0
KCO2 191930Z 36013KT 11/M03 A303 RMK A01 T01061033  RH  038%=      5-min Rain = 0
KCO2 191931Z 35016KT 11/M03 A303 RMK A01 T01081032  RH  037%=      5-min Rain = 0
KCO2 191932Z 01013KT 11/M03 A303 RMK A01 T01091033  RH  037%=      5-min Rain = 0
KCO2 191933Z 36016KT 11/M03 A303 RMK A01 T01101032  RH  037%=      5-min Rain = 0
KCO2 191934Z 34013KT 11/M03 A303 RMK A01 T01121030  RH  037%=      5-min Rain = 0
KCO2 191935Z 34013KT 11/M03 A303 RMK A01 T01131030  RH  037%=      5-min Rain = 0
KCO2 191936Z 34013KT 11/M03 A303 RMK A01 T01121034  RH  036%=      5-min Rain = 0
KCO2 191937Z 35011KT 11/M03 A303 RMK A01 T01091034  RH  036%=      5-min Rain = 0
KCO2 191938Z 36012KT 11/M03 A303 RMK A01 T01101032  RH  037%=      5-min Rain = 0
KCO2 191939Z 35015KT 11/M03 A303 RMK A01 T01111034  RH  036%=      5-min Rain = 0
KCO2 191940Z 35013KT 11/M03 A303 RMK A01 T01111034  RH  036%=      5-min Rain = 0
KCO2 191941Z 34013KT 11/M03 A303 RMK A01 T01131031  RH  036%=      5-min Rain = 0
KCO2 191942Z 35011KT 12/M03 A303 RMK A01 T01151030  RH  036%=      5-min Rain = 0
KCO2 191943Z 34012KT 12/M03 A303 RMK A01 T01161031  RH  036%=      5-min Rain = 0
KCO2 191944Z 34013KT 11/M03 A303 RMK A01 T01141031  RH  036%=      5-min Rain = 0
KCO2 191945Z 35015KT 11/M03 A303 RMK A01 T01121033  RH  036%=      5-min Rain = 0
KCO2 191946Z 34013KT 11/M03 A303 RMK A01 T01091033  RH  037%=      5-min Rain = 0
KCO2 191947Z 33013KT 11/M03 A303 RMK A01 T01081032  RH  037%=      5-min Rain = 0
KCO2 191948Z 34011KT 11/M03 A303 RMK A01 T01081030  RH  038%=      5-min Rain = 0
KCO2 191949Z 34009KT 11/M03 A303 RMK A01 T01101029  RH  038%=      5-min Rain = 0
KCO2 191950Z 33006KT 11/M03 A3029 RMK A01 T01101029  RH  038%=      5-min Rain = 0
KCO2 191951Z 33010KT 11/M03 A3029 RMK A01 T01121027  RH  038%=      5-min Rain = 0
KCO2 191952Z 32011KT 12/M03 A3029 RMK A01 T01151026  RH  037%=      5-min Rain = 0
KCO2 191953Z 31010KT 11/M03 A3029 RMK A01 T01141030  RH  036%=      5-min Rain = 0
KCO2 191954Z 31010KT 11/M03 A3029 RMK A01 T01121030  RH  037%=      5-min Rain = 0
KCO2 191955Z 33011KT 11/M03 A3029 RMK A01 T01121029  RH  037%=      5-min Rain = 0
KCO2 191956Z 33009G14KT 12/M03 A3029 RMK A01 T01151025  RH  037%=      5-min Rain = 0
KCO2 191957Z 35016KT 12/M03 A3029 RMK A01 T01191026  RH  036%=      5-min Rain = 0
KCO2 191958Z 35015KT 12/M03 A3029 RMK A01 T01171031  RH  036%=      5-min Rain = 0
KCO2 191959Z 33014KT 12/M03 A3029 RMK A01 T01161030  RH  036%=      5-min Rain = 0
KCO2 192000Z 33015KT 12/M03 A3029 RMK A01 T01161029  RH  036%=      5-min Rain = 0
KCO2 192001Z 33013KT 12/M03 A3029 RMK A01 T01151030  RH  036%=      5-min Rain = 0
KCO2 192002Z 35014G21KT 11/M03 A3029 RMK A01 T01141030  RH  036%=      5-min Rain = 0
KCO2 192003Z 33012KT 12/M03 A3029 RMK A01 T01171027  RH  036%=      5-min Rain = 0
KCO2 192004Z 33014KT 12/M03 A3029 RMK A01 T01201028  RH  035%=      5-min Rain = 0
KCO2 192005Z 32013KT 12/M03 A3029 RMK A01 T01171031  RH  035%=      5-min Rain = 0
KCO2 192006Z 33012KT 12/M03 A3029 RMK A01 T01171029  RH  036%=      5-min Rain = 0
KCO2 192007Z 33016KT 12/M03 A3029 RMK A01 T01191028  RH  036%=      5-min Rain = 0
KCO2 192008Z 33015KT 12/M03 A3029 RMK A01 T01171031  RH  035%=      5-min Rain = 0
KCO2 192009Z 32013G18KT 12/M03 A3029 RMK A01 T01161030  RH  036%=      5-min Rain = 0
KCO2 192010Z 31018KT 12/M03 A3029 RMK A01 T01161030  RH  036%=      5-min Rain = 0
KCO2 192011Z 32013KT 12/M03 A3029 RMK A01 T01161031  RH  036%=      5-min Rain = 0
KCO2 192012Z 32015G20KT 12/M03 A3028 RMK A01 T01181029  RH  036%=      5-min Rain = 0
KCO2 192013Z 32014KT 12/M03 A3028 RMK A01 T01191030  RH  035%=      5-min Rain = 0
KCO2 192014Z 32016G22KT 12/M03 A3028 RMK A01 T01191029  RH  035%=      5-min Rain = 0
KCO2 192015Z 33017G23KT 12/M03 A3028 RMK A01 T01191031  RH  035%=      5-min Rain = 0
KCO2 192016Z 33015KT 12/M03 A3028 RMK A01 T01171031  RH  035%=      5-min Rain = 0
KCO2 192017Z 33013G19KT 12/M03 A3028 RMK A01 T01181030  RH  035%=      5-min Rain = 0
KCO2 192018Z 32015KT 12/M03 A3028 RMK A01 T01181028  RH  036%=      5-min Rain = 0
KCO2 192019Z 32015KT 12/M03 A3028 RMK A01 T01191029  RH  035%=      5-min Rain = 0
KCO2 192020Z 32015KT 12/M03 A3028 RMK A01 T01191029  RH  036%=      5-min Rain = 0
KCO2 192021Z 32014G19KT 12/M03 A3028 RMK A01 T01171029  RH  036%=      5-min Rain = 0
KCO2 192022Z 32014KT 12/M03 A3028 RMK A01 T01171028  RH  036%=      5-min Rain = 0
KCO2 192023Z 31012KT 12/M03 A3028 RMK A01 T01191025  RH  037%=      5-min Rain = 0
KCO2 192024Z 33014G19KT 12/M03 A3028 RMK A01 T01231025  RH  036%=      5-min Rain = 0
KCO2 192025Z 32015G20KT 12/M03 A3028 RMK A01 T01241026  RH  035%=      5-min Rain = 0
KCO2 192026Z 32016KT 12/M03 A3028 RMK A01 T01241028  RH  035%=      5-min Rain = 0
KCO2 192027Z 32017KT 12/M03 A3028 RMK A01 T01211030  RH  035%=      5-min Rain = 0
KCO2 192028Z 33014KT 12/M03 A3028 RMK A01 T01201029  RH  035%=      5-min Rain = 0
KCO2 192029Z 33016KT 12/M03 A3028 RMK A01 T01211028  RH  035%=      5-min Rain = 0
KCO2 192030Z 34014KT 12/M03 A3028 RMK A01 T01191029  RH  035%=      5-min Rain = 0
KCO2 192031Z 34013KT 12/M03 A3028 RMK A01 T01191029  RH  036%=      5-min Rain = 0
KCO2 192032Z 33016G21KT 12/M03 A3028 RMK A01 T01211027  RH  036%=      5-min Rain = 0
KCO2 192033Z 33018KT 12/M03 A3028 RMK A01 T01231029  RH  035%=      5-min Rain = 0
KCO2 192034Z 34017G23KT 12/M03 A3028 RMK A01 T01211031  RH  034%=      5-min Rain = 0
KCO2 192035Z 34016KT 12/M03 A3028 RMK A01 T01211031  RH  035%=      5-min Rain = 0
KCO2 192036Z 35016KT 12/M03 A3028 RMK A01 T01201031  RH  035%=      5-min Rain = 0
KCO2 192037Z 35014G19KT 12/M03 A3028 RMK A01 T01211030  RH  035%=      5-min Rain = 0
KCO2 192038Z 35016KT 12/M03 A3028 RMK A01 T01211030  RH  035%=      5-min Rain = 0
KCO2 192039Z 34014KT 12/M03 A3027 RMK A01 T01191031  RH  035%=      5-min Rain = 0
KCO2 192040Z 34011KT 12/M03 A3027 RMK A01 T01191030  RH  035%=      5-min Rain = 0
KCO2 192041Z 33011KT 12/M03 A3027 RMK A01 T01211029  RH  035%=      5-min Rain = 0
KCO2 192042Z 34011G20KT 13/M03 A3027 RMK A01 T01251025  RH  035%=      5-min Rain = 0
KCO2 192043Z 33016G21KT 13/M03 A3027 RMK A01 T01301026  RH  034%=      5-min Rain = 0
KCO2 192044Z 32019G24KT 13/M03 A3027 RMK A01 T01301028  RH  033%=      5-min Rain = 0
KCO2 192045Z 33019G24KT 13/M03 A3027 RMK A01 T01251034  RH  033%=      5-min Rain = 0
KCO2 192046Z 33023KT 12/M03 A3027 RMK A01 T01221033  RH  034%=      5-min Rain = 0
KCO2 192047Z 34020G25KT 12/M03 A3027 RMK A01 T01201032  RH  034%=      5-min Rain = 0
KCO2 192048Z 33019KT 12/M03 A3027 RMK A01 T01201031  RH  035%=      5-min Rain = 0
KCO2 192049Z 34018G23KT 12/M03 A3027 RMK A01 T01211030  RH  035%=      5-min Rain = 0
KCO2 192050Z 34018KT 12/M03 A3027 RMK A01 T01211030  RH  035%=      5-min Rain = 0
KCO2 192051Z 33018KT 12/M03 A3027 RMK A01 T01211030  RH  035%=      5-min Rain = 0
KCO2 192052Z 34014G19KT 12/M03 A3027 RMK A01 T01221030  RH  035%=      5-min Rain = 0
KCO2 192053Z 34017G22KT 13/M03 A3027 RMK A01 T01251027  RH  034%=      5-min Rain = 0
KCO2 192054Z 34017G22KT 13/M03 A3027 RMK A01 T01261030  RH  034%=      5-min Rain = 0
KCO2 192055Z 33018KT 13/M03 A3027 RMK A01 T01251030  RH  034%=      5-min Rain = 0
KCO2 192056Z 34020KT 12/M03 A3027 RMK A01 T01241031  RH  034%=      5-min Rain = 0
KCO2 192057Z 34019KT 12/M03 A3027 RMK A01 T01241031  RH  034%=      5-min Rain = 0
KCO2 192058Z 34017KT 12/M03 A3027 RMK A01 T01241031  RH  034%=      5-min Rain = 0
KCO2 192059Z 33018KT 13/M03 A3027 RMK A01 T01251030  RH  034%=      5-min Rain = 0
KCO2 192100Z 33015G20KT 13/M03 A3027 RMK A01 T01251030  RH  034%=      5-min Rain = 0
KCO2 192101Z 33015KT 12/M03 A3027 RMK A01 T01241030  RH  034%=      5-min Rain = 0
KCO2 192102Z 33015KT 12/M03 A3027 RMK A01 T01231030  RH  034%=      5-min Rain = 0
KCO2 192103Z 33013KT 12/M03 A3027 RMK A01 T01231029  RH  034%=      5-min Rain = 0
KCO2 192104Z 32014G22KT 13/M03 A3027 RMK A01 T01251028  RH  034%=      5-min Rain = 0
KCO2 192105Z 33016G23KT 13/M03 A3027 RMK A01 T01251028  RH  034%=      5-min Rain = 0
KCO2 192106Z 33017KT 13/M03 A3027 RMK A01 T01271028  RH  034%=      5-min Rain = 0
KCO2 192107Z 34016KT 13/M03 A3027 RMK A01 T01281029  RH  033%=      5-min Rain = 0
KCO2 192108Z 34018G23KT 13/M03 A3027 RMK A01 T01291029  RH  033%=      5-min Rain = 0
KCO2 192109Z 33017KT 13/M03 A3027 RMK A01 T01291029  RH  033%=      5-min Rain = 0
KCO2 192110Z 33020G26KT 13/M03 A3027 RMK A01 T01291030  RH  033%=      5-min Rain = 0
KCO2 192111Z 34019KT 13/M03 A3027 RMK A01 T01281032  RH  033%=      5-min Rain = 0
KCO2 192112Z 35015KT 13/M03 A3027 RMK A01 T01271032  RH  033%=      5-min Rain = 0
KCO2 192113Z 33016KT 13/M03 A3027 RMK A01 T01271030  RH  033%=      5-min Rain = 0
KCO2 192114Z 33019KT 13/M03 A3027 RMK A01 T01291030  RH  033%=      5-min Rain = 0
KCO2 192115Z 33017G22KT 13/M03 A3026 RMK A01 T01281030  RH  033%=      5-min Rain = 0
KCO2 192116Z 32019KT 13/M03 A3026 RMK A01 T01271030  RH  033%=      5-min Rain = 0
KCO2 192117Z 32017KT 13/M03 A3026 RMK A01 T01261030  RH  034%=      5-min Rain = 0
KCO2 192118Z 33014G20KT 13/M03 A3026 RMK A01 T01261030  RH  034%=      5-min Rain = 0
KCO2 192119Z 33014KT 13/M03 A3026 RMK A01 T01261029  RH  034%=      5-min Rain = 0
KCO2 192120Z 33016KT 13/M03 A3026 RMK A01 T01281027  RH  034%=      5-min Rain = 0
KCO2 192121Z 34015KT 13/M03 A3026 RMK A01 T01301028  RH  033%=      5-min Rain = 0
KCO2 192122Z 35017KT 13/M03 A3026 RMK A01 T01301028  RH  033%=      5-min Rain = 0
KCO2 192123Z 34017KT 13/M03 A3026 RMK A01 T01291029  RH  033%=      5-min Rain = 0
KCO2 192124Z 33015KT 13/M03 A3026 RMK A01 T01281030  RH  033%=      5-min Rain = 0
KCO2 192125Z 34020KT 13/M03 A3026 RMK A01 T01281029  RH  034%=      5-min Rain = 0
KCO2 192126Z 34019KT 13/M03 A3026 RMK A01 T01281029  RH  033%=      5-min Rain = 0
KCO2 192127Z 34018KT 13/M03 A3026 RMK A01 T01281029  RH  033%=      5-min Rain = 0
KCO2 192128Z 33015KT 13/M03 A3026 RMK A01 T01281030  RH  033%=      5-min Rain = 0
KCO2 192129Z 33012KT 13/M03 A3026 RMK A01 T01271030  RH  033%=      5-min Rain = 0
KCO2 192130Z 32013KT 13/M03 A3026 RMK A01 T01261031  RH  034%=      5-min Rain = 0
KCO2 192131Z 33018KT 13/M03 A3026 RMK A01 T01281029  RH  033%=      5-min Rain = 0
KCO2 192132Z 34017G22KT 13/M03 A3026 RMK A01 T01291030  RH  033%=      5-min Rain = 0
KCO2 192133Z 34020KT 13/M03 A3026 RMK A01 T01311029  RH  033%=      5-min Rain = 0
KCO2 192134Z 34016KT 13/M03 A3026 RMK A01 T01301031  RH  032%=      5-min Rain = 0
KCO2 192135Z 32017KT 13/M03 A3026 RMK A01 T01311030  RH  033%=      5-min Rain = 0
KCO2 192136Z 32017KT 13/M03 A3026 RMK A01 T01321032  RH  032%=      5-min Rain = 0
KCO2 192137Z 33019KT 13/M03 A3026 RMK A01 T01311032  RH  032%=      5-min Rain = 0
KCO2 192138Z 34016KT 13/M03 A3026 RMK A01 T01301032  RH  032%=      5-min Rain = 0
KCO2 192139Z 34018KT 13/M03 A3026 RMK A01 T01301031  RH  033%=      5-min Rain = 0
KCO2 192140Z 34016KT 13/M03 A3026 RMK A01 T01301032  RH  032%=      5-min Rain = 0
KCO2 192141Z 34016KT 13/M03 A3026 RMK A01 T01291032  RH  033%=      5-min Rain = 0
KCO2 192142Z 33017KT 13/M03 A3026 RMK A01 T01291030  RH  033%=      5-min Rain = 0
KCO2 192143Z 34014G19KT 13/M03 A3026 RMK A01 T01321028  RH  033%=      5-min Rain = 0
KCO2 192144Z 34016KT 13/M03 A3026 RMK A01 T01331030  RH  032%=      5-min Rain = 0
KCO2 192145Z 35015KT 13/M03 A3026 RMK A01 T01321031  RH  032%=      5-min Rain = 0
KCO2 192146Z 34016KT 13/M03 A3026 RMK A01 T01321029  RH  032%=      5-min Rain = 0
KCO2 192147Z 35018KT 13/M03 A3026 RMK A01 T01331030  RH  032%=      5-min Rain = 0
KCO2 192148Z 36018KT 13/M03 A3026 RMK A01 T01311031  RH  032%=      5-min Rain = 0
KCO2 192149Z 35022KT 13/M03 A3026 RMK A01 T01311031  RH  032%=      5-min Rain = 0
KCO2 192150Z 34018KT 13/M03 A3026 RMK A01 T01311033  RH  032%=      5-min Rain = 0
KCO2 192151Z 33022KT 13/M03 A3026 RMK A01 T01301032  RH  032%=      5-min Rain = 0
KCO2 192152Z 34020KT 13/M03 A3026 RMK A01 T01301032  RH  032%=      5-min Rain = 0
KCO2 192153Z 35016KT 13/M03 A3026 RMK A01 T01301032  RH  032%=      5-min Rain = 0
KCO2 192154Z 33014KT 13/M03 A3026 RMK A01 T01311031  RH  032%=      5-min Rain = 0
KCO2 192155Z 33014KT 13/M03 A3026 RMK A01 T01321030  RH  032%=      5-min Rain = 0
KCO2 192156Z 33018KT 13/M03 A3026 RMK A01 T01331031  RH  032%=      5-min Rain = 0
KCO2 192157Z 33015G20KT 13/M03 A3026 RMK A01 T01331031  RH  032%=      5-min Rain = 0
KCO2 192158Z 33015KT 13/M03 A3026 RMK A01 T01321031  RH  032%=      5-min Rain = 0
KCO2 192159Z 34014KT 13/M03 A3026 RMK A01 T01311030  RH  032%=      5-min Rain = 0
KCO2 192200Z 35015KT 13/M03 A3026 RMK A01 T01321030  RH  032%=      5-min Rain = 0
KCO2 192201Z 36018G24KT 13/M03 A3026 RMK A01 T01331030  RH  032%=      5-min Rain = 0
KCO2 192202Z 35020KT 13/M03 A3026 RMK A01 T01321031  RH  032%=      5-min Rain = 0
KCO2 192203Z 35015KT 13/M03 A3026 RMK A01 T01311031  RH  032%=      5-min Rain = 0
KCO2 192204Z 34015KT 13/M03 A3026 RMK A01 T01311031  RH  032%=      5-min Rain = 0
KCO2 192205Z 35015G20KT 13/M03 A3026 RMK A01 T01311031  RH  032%=      5-min Rain = 0
KCO2 192206Z 34015KT 13/M03 A3026 RMK A01 T01321031  RH  032%=      5-min Rain = 0
KCO2 192207Z 34015KT 13/M03 A3026 RMK A01 T01311031  RH  032%=      5-min Rain = 0
KCO2 192208Z 34016KT 13/M03 A3026 RMK A01 T01311031  RH  032%=      5-min Rain = 0
KCO2 192209Z 34015KT 13/M03 A3026 RMK A01 T01301031  RH  032%=      5-min Rain = 0
KCO2 192210Z 35018KT 13/M03 A3026 RMK A01 T01301031  RH  032%=      5-min Rain = 0
KCO2 192211Z 35020KT 13/M03 A3026 RMK A01 T01301031  RH  033%=      5-min Rain = 0
KCO2 192212Z 36020KT 13/M03 A3026 RMK A01 T01291032  RH  032%=      5-min Rain = 0
KCO2 192213Z 34018KT 13/M03 A3026 RMK A01 T01281032  RH  033%=      5-min Rain = 0
KCO2 192214Z 35015KT 13/M03 A3026 RMK A01 T01281032  RH  033%=      5-min Rain = 0
KCO2 192215Z 35017KT 13/M03 A3026 RMK A01 T01291031  RH  033%=      5-min Rain = 0
KCO2 192216Z 34017KT 13/M03 A3026 RMK A01 T01301031  RH  033%=      5-min Rain = 0
KCO2 192217Z 34014G19KT 13/M03 A3026 RMK A01 T01301031  RH  033%=      5-min Rain = 0
KCO2 192218Z 34017KT 13/M03 A3026 RMK A01 T01301031  RH  033%=      5-min Rain = 0
KCO2 192219Z 34016KT 13/M03 A3026 RMK A01 T01291032  RH  033%=      5-min Rain = 0
KCO2 192220Z 33013KT 13/M03 A3026 RMK A01 T01271032  RH  033%=      5-min Rain = 0
KCO2 192221Z 33014KT 13/M03 A3026 RMK A01 T01281030  RH  033%=      5-min Rain = 0
KCO2 192222Z 35013KT 13/M03 A3026 RMK A01 T01291030  RH  033%=      5-min Rain = 0
KCO2 192223Z 34016G21KT 13/M03 A3026 RMK A01 T01291030  RH  033%=      5-min Rain = 0
KCO2 192224Z 35020G25KT 13/M03 A3027 RMK A01 T01301030  RH  033%=      5-min Rain = 0
KCO2 192225Z 34016KT 13/M03 A3026 RMK A01 T01291031  RH  033%=      5-min Rain = 0
KCO2 192226Z 34014KT 13/M03 A3027 RMK A01 T01281030  RH  033%=      5-min Rain = 0
KCO2 192227Z 34012G18KT 13/M03 A3027 RMK A01 T01291029  RH  033%=      5-min Rain = 0
KCO2 192228Z 34016KT 13/M03 A3027 RMK A01 T01311028  RH  033%=      5-min Rain = 0
KCO2 192229Z 33014KT 13/M03 A3027 RMK A01 T01301030  RH  033%=      5-min Rain = 0
KCO2 192230Z 34015KT 13/M03 A3027 RMK A01 T01291031  RH  033%=      5-min Rain = 0
KCO2 192231Z 34019KT 13/M03 A3027 RMK A01 T01291030  RH  033%=      5-min Rain = 0
KCO2 192232Z 35016KT 13/M03 A3027 RMK A01 T01281030  RH  033%=      5-min Rain = 0
KCO2 192233Z 34017KT 13/M03 A3027 RMK A01 T01291030  RH  033%=      5-min Rain = 0
KCO2 192234Z 34013KT 13/M03 A3027 RMK A01 T01281030  RH  033%=      5-min Rain = 0
KCO2 192235Z 34013KT 13/M03 A3027 RMK A01 T01291029  RH  033%=      5-min Rain = 0
KCO2 192236Z 34013KT 13/M03 A3027 RMK A01 T01311028  RH  033%=      5-min Rain = 0
KCO2 192237Z 35012KT 13/M03 A3027 RMK A01 T01311028  RH  033%=      5-min Rain = 0
KCO2 192238Z 34013KT 13/M03 A3027 RMK A01 T01321028  RH  033%=      5-min Rain = 0
KCO2 192239Z 34011KT 13/M03 A3027 RMK A01 T01321028  RH  033%=      5-min Rain = 0
KCO2 192240Z 33014G20KT 13/M03 A3027 RMK A01 T01321028  RH  033%=      5-min Rain = 0
KCO2 192241Z 33013KT 13/M03 A3027 RMK A01 T01311028  RH  033%=      5-min Rain = 0
KCO2 192242Z 34014KT 13/M03 A3027 RMK A01 T01301029  RH  033%=      5-min Rain = 0
KCO2 192243Z 34015KT 13/M03 A3027 RMK A01 T01301029  RH  033%=      5-min Rain = 0
KCO2 192244Z 34014G19KT 13/M03 A3027 RMK A01 T01291029  RH  033%=      5-min Rain = 0
KCO2 192245Z 34013KT 13/M03 A3027 RMK A01 T01281029  RH  033%=      5-min Rain = 0
KCO2 192246Z 34013KT 13/M03 A3027 RMK A01 T01281029  RH  033%=      5-min Rain = 0
KCO2 192247Z 34015KT 13/M03 A3027 RMK A01 T01281029  RH  033%=      5-min Rain = 0
KCO2 192248Z 35016KT 13/M03 A3027 RMK A01 T01281030  RH  033%=      5-min Rain = 0
KCO2 192249Z 35017KT 13/M03 A3027 RMK A01 T01271030  RH  033%=      5-min Rain = 0
KCO2 192250Z 34013KT 13/M03 A3027 RMK A01 T01271029  RH  034%=      5-min Rain = 0
KCO2 192251Z 34013KT 13/M03 A3027 RMK A01 T01271029  RH  034%=      5-min Rain = 0
KCO2 192252Z 34013KT 13/M03 A3027 RMK A01 T01271030  RH  034%=      5-min Rain = 0
KCO2 192253Z 35014KT 13/M03 A3027 RMK A01 T01271030  RH  034%=      5-min Rain = 0
KCO2 192254Z 00015KT 13/M03 A3027 RMK A01 T01261030  RH  034%=      5-min Rain = 0
KCO2 192255Z 36014KT 13/M03 A3027 RMK A01 T01271029  RH  034%=      5-min Rain = 0
KCO2 192256Z 35014KT 13/M03 A3027 RMK A01 T01261030  RH  034%=      5-min Rain = 0
KCO2 192257Z 36015KT 13/M03 A3027 RMK A01 T01261030  RH  034%=      5-min Rain = 0
KCO2 192258Z 35011KT 13/M03 A3027 RMK A01 T01261030  RH  034%=      5-min Rain = 0
KCO2 192259Z 34010KT 13/M03 A3027 RMK A01 T01261029  RH  034%=      5-min Rain = 0
KCO2 192300Z 35010KT 13/M03 A3027 RMK A01 T01271029  RH  034%=      5-min Rain = 0
KCO2 192301Z 35010KT 13/M03 A3027 RMK A01 T01271029  RH  034%=      5-min Rain = 0
KCO2 192302Z 34014KT 13/M03 A3027 RMK A01 T01271029  RH  034%=      5-min Rain = 0
KCO2 192303Z 35011KT 13/M03 A3027 RMK A01 T01271029  RH  034%=      5-min Rain = 0
KCO2 192304Z 35013G18KT 13/M03 A3027 RMK A01 T01271029  RH  034%=      5-min Rain = 0
KCO2 192305Z 34015KT 13/M03 A3027 RMK A01 T01261030  RH  034%=      5-min Rain = 0
KCO2 192306Z 34013G18KT 13/M03 A3027 RMK A01 T01261030  RH  034%=      5-min Rain = 0
KCO2 192307Z 34014KT 13/M03 A3027 RMK A01 T01251031  RH  034%=      5-min Rain = 0
KCO2 192308Z 35012KT 12/M03 A3027 RMK A01 T01241031  RH  034%=      5-min Rain = 0
KCO2 192309Z 35015G20KT 12/M03 A3027 RMK A01 T01241031  RH  034%=      5-min Rain = 0
KCO2 192310Z 35014KT 13/M03 A3027 RMK A01 T01251031  RH  034%=      5-min Rain = 0
KCO2 192311Z 34015KT 12/M03 A3027 RMK A01 T01241031  RH  034%=      5-min Rain = 0
KCO2 192312Z 34012KT 12/M03 A3027 RMK A01 T01241032  RH  034%=      5-min Rain = 0
KCO2 192313Z 35013G18KT 12/M03 A3027 RMK A01 T01231031  RH  034%=      5-min Rain = 0
KCO2 192314Z 35014KT 12/M03 A3027 RMK A01 T01231031  RH  034%=      5-min Rain = 0
KCO2 192315Z 35014KT 12/M03 A3027 RMK A01 T01231031  RH  034%=      5-min Rain = 0
KCO2 192316Z 34012KT 12/M03 A3027 RMK A01 T01231031  RH  034%=      5-min Rain = 0
KCO2 192317Z 35014KT 12/M03 A3027 RMK A01 T01231031  RH  034%=      5-min Rain = 0
KCO2 192318Z 35016KT 12/M03 A3027 RMK A01 T01231032  RH  034%=      5-min Rain = 0
KCO2 192319Z 35013KT 12/M03 A3027 RMK A01 T01221033  RH  034%=      5-min Rain = 0
KCO2 192320Z 35015KT 12/M03 A3027 RMK A01 T01221033  RH  034%=      5-min Rain = 0
KCO2 192321Z 35015KT 12/M03 A3027 RMK A01 T01221033  RH  034%=      5-min Rain = 0
KCO2 192322Z 35013KT 12/M03 A3027 RMK A01 T01221033  RH  034%=      5-min Rain = 0
KCO2 192323Z 35012KT 12/M03 A3027 RMK A01 T01211033  RH  034%=      5-min Rain = 0
KCO2 192324Z 35011KT 12/M03 A3027 RMK A01 T01221032  RH  034%=      5-min Rain = 0
KCO2 192325Z 35009KT 12/M03 A3027 RMK A01 T01221032  RH  034%=      5-min Rain = 0
KCO2 192326Z 35008KT 12/M03 A3027 RMK A01 T01211032  RH  034%=      5-min Rain = 0
KCO2 192327Z 35009KT 12/M03 A3027 RMK A01 T01211032  RH  034%=      5-min Rain = 0
KCO2 192328Z 35009KT 12/M03 A3027 RMK A01 T01211032  RH  034%=      5-min Rain = 0
KCO2 192329Z 34011KT 12/M03 A3027 RMK A01 T01211032  RH  034%=      5-min Rain = 0
KCO2 192330Z 34011KT 12/M03 A3027 RMK A01 T01201033  RH  034%=      5-min Rain = 0
KCO2 192331Z 35011KT 12/M03 A3027 RMK A01 T01201033  RH  034%=      5-min Rain = 0
KCO2 192332Z 36011KT 12/M03 A3027 RMK A01 T01191034  RH  034%=      5-min Rain = 0
KCO2 192333Z 35013KT 12/M03 A3027 RMK A01 T01191034  RH  034%=      5-min Rain = 0
KCO2 192334Z 36012KT 12/M03 A3027 RMK A01 T01191034  RH  034%=      5-min Rain = 0
KCO2 192335Z 35011KT 12/M03 A3027 RMK A01 T01191034  RH  034%=      5-min Rain = 0
KCO2 192336Z 35009KT 12/M03 A3027 RMK A01 T01181034  RH  034%=      5-min Rain = 0
KCO2 192337Z 35008KT 12/M03 A3027 RMK A01 T01171034  RH  035%=      5-min Rain = 0
KCO2 192338Z 35009KT 12/M03 A3027 RMK A01 T01171034  RH  035%=      5-min Rain = 0
KCO2 192339Z 35013KT 12/M03 A3027 RMK A01 T01161034  RH  035%=      5-min Rain = 0
KCO2 192340Z 35012KT 12/M04 A3027 RMK A01 T01161035  RH  035%=      5-min Rain = 0
KCO2 192341Z 35009KT 12/M03 A3027 RMK A01 T01161034  RH  035%=      5-min Rain = 0
KCO2 192342Z 36009KT 12/M03 A3027 RMK A01 T01151034  RH  035%=      5-min Rain = 0
KCO2 192343Z 00009KT 12/M03 A3027 RMK A01 T01151034  RH  035%=      5-min Rain = 0
KCO2 192344Z 00010KT 12/M03 A3027 RMK A01 T01151034  RH  035%=      5-min Rain = 0
KCO2 192345Z 36008KT 12/M03 A3027 RMK A01 T01151034  RH  035%=      5-min Rain = 0
KCO2 192346Z 35009KT 11/M04 A3027 RMK A01 T01141035  RH  035%=      5-min Rain = 0
KCO2 192347Z 01010KT 11/M04 A3027 RMK A01 T01131035  RH  035%=      5-min Rain = 0
KCO2 192348Z 00011KT 11/M03 A3027 RMK A01 T01131034  RH  035%=      5-min Rain = 0
KCO2 192349Z 36011KT 11/M03 A3027 RMK A01 T01131034  RH  035%=      5-min Rain = 0
KCO2 192350Z 36011KT 11/M03 A3027 RMK A01 T01121034  RH  036%=      5-min Rain = 0
KCO2 192351Z 36010KT 11/M03 A3027 RMK A01 T01121034  RH  036%=      5-min Rain = 0
KCO2 192352Z 00010KT 11/M03 A3027 RMK A01 T01121034  RH  036%=      5-min Rain = 0
KCO2 192353Z 00008KT 11/M04 A3027 RMK A01 T01111035  RH  036%=      5-min Rain = 0
KCO2 192354Z 36007KT 11/M04 A3027 RMK A01 T01101035  RH  036%=      5-min Rain = 0
KCO2 192355Z 00006KT 11/M04 A3027 RMK A01 T01091035  RH  036%=      5-min Rain = 0
KCO2 192356Z 00006KT 11/M04 A3027 RMK A01 T01071035  RH  037%=      5-min Rain = 0
KCO2 192357Z 36007KT 11/M04 A3027 RMK A01 T01061035  RH  037%=      5-min Rain = 0
KCO2 192358Z 01007KT 11/M04 A3027 RMK A01 T01061035  RH  037%=      5-min Rain = 0
KCO2 192359Z 01006KT 11/M04 A3027 RMK A01 T01051035  RH  037%=      5-min Rain = 0
KCO2 200000Z 00006KT 11/M04 A3027 RMK A01 T01051035  RH  037%=      5-min Rain = 0
KCO2 200001Z 00007KT 10/M04 A3027 RMK A01 T01031035  RH  038%=      5-min Rain = 0
KCO2 200002Z 00006KT 10/M04 A3027 RMK A01 T01021035  RH  038%=      5-min Rain = 0
KCO2 200003Z 00006KT 10/M04 A3027 RMK A01 T01021035  RH  038%=      5-min Rain = 0
KCO2 200004Z 00007KT 10/M04 A3027 RMK A01 T01001035  RH  038%=      5-min Rain = 0
KCO2 200005Z 01006KT 10/M04 A3027 RMK A01 T00991035  RH  039%=      5-min Rain = 0
KCO2 200006Z 00006KT 10/M04 A3027 RMK A01 T00981036  RH  039%=      5-min Rain = 0
KCO2 200007Z 00006KT 10/M04 A3027 RMK A01 T00981036  RH  039%=      5-min Rain = 0
KCO2 200008Z 00006KT 10/M04 A3027 RMK A01 T00971036  RH  039%=      5-min Rain = 0
KCO2 200009Z 01006KT 10/M04 A3027 RMK A01 T00961036  RH  039%=      5-min Rain = 0
KCO2 200010Z 01006KT 10/M04 A3027 RMK A01 T00961035  RH  039%=      5-min Rain = 0
KCO2 200011Z 01006KT 10/M04 A3027 RMK A01 T00951035  RH  040%=      5-min Rain = 0
KCO2 200012Z 01006KT 09/M04 A3027 RMK A01 T00941036  RH  040%=      5-min Rain = 0
KCO2 200013Z 01006KT 09/M04 A3027 RMK A01 T00931035  RH  040%=      5-min Rain = 0
KCO2 200014Z 01006KT 09/M04 A3027 RMK A01 T00921036  RH  040%=      5-min Rain = 0
KCO2 200015Z 01006KT 09/M04 A3027 RMK A01 T00911036  RH  041%=      5-min Rain = 0
KCO2 200016Z 01006KT 09/M04 A3027 RMK A01 T00901036  RH  041%=      5-min Rain = 0
KCO2 200017Z 02006KT 09/M04 A3027 RMK A01 T00891035  RH  041%=      5-min Rain = 0
KCO2 200018Z 02005KT 09/M04 A3027 RMK A01 T00881036  RH  042%=      5-min Rain = 0
KCO2 200019Z 02005KT 09/M04 A3027 RMK A01 T00861036  RH  042%=      5-min Rain = 0
KCO2 200020Z 02006KT 09/M04 A3027 RMK A01 T00851036  RH  042%=      5-min Rain = 0
KCO2 200021Z 02005KT 08/M04 A3027 RMK A01 T00841036  RH  043%=      5-min Rain = 0
KCO2 200022Z 02005KT 08/M04 A3027 RMK A01 T00831036  RH  043%=      5-min Rain = 0
KCO2 200023Z 02005KT 08/M04 A3027 RMK A01 T00821036  RH  043%=      5-min Rain = 0
KCO2 200024Z 02006KT 08/M04 A3027 RMK A01 T00811037  RH  043%=      5-min Rain = 0
KCO2 200025Z 02006KT 08/M04 A3027 RMK A01 T00811037  RH  043%=      5-min Rain = 0
KCO2 200026Z 02006KT 08/M04 A3027 RMK A01 T00801037  RH  043%=      5-min Rain = 0
KCO2 200027Z 02005KT 08/M04 A3028 RMK A01 T00801037  RH  044%=      5-min Rain = 0
KCO2 200028Z 02005KT 08/M04 A3028 RMK A01 T00791037  RH  044%=      5-min Rain = 0
KCO2 200029Z 02006KT 08/M04 A3028 RMK A01 T00781037  RH  044%=      5-min Rain = 0
KCO2 200030Z 02006KT 08/M04 A3028 RMK A01 T00771038  RH  044%=      5-min Rain = 0
KCO2 200031Z 03006KT 08/M04 A3028 RMK A01 T00771038  RH  044%=      5-min Rain = 0
KCO2 200032Z 03007KT 08/M04 A3028 RMK A01 T00761038  RH  044%=      5-min Rain = 0
KCO2 200033Z 03007KT 07/M04 A3028 RMK A01 T00741038  RH  045%=      5-min Rain = 0
KCO2 200034Z 02007KT 07/M04 A3028 RMK A01 T00731038  RH  045%=      5-min Rain = 0
KCO2 200035Z 02008KT 07/M04 A3028 RMK A01 T00721038  RH  045%=      5-min Rain = 0
KCO2 200036Z 02008KT 07/M04 A3028 RMK A01 T00711038  RH  046%=      5-min Rain = 0
KCO2 200037Z 02008KT 07/M04 A3028 RMK A01 T00711038  RH  046%=      5-min Rain = 0
KCO2 200038Z 02008KT 07/M04 A3028 RMK A01 T00701038  RH  046%=      5-min Rain = 0
KCO2 200039Z 02008KT 07/M04 A3028 RMK A01 T00691038  RH  046%=      5-min Rain = 0
KCO2 200040Z 02008KT 07/M04 A3028 RMK A01 T00681038  RH  047%=      5-min Rain = 0
KCO2 200041Z 02008KT 07/M04 A3028 RMK A01 T00681038  RH  047%=      5-min Rain = 0
KCO2 200042Z 02008KT 07/M04 A3028 RMK A01 T00671038  RH  047%=      5-min Rain = 0
KCO2 200043Z 02008KT 07/M04 A3028 RMK A01 T00671038  RH  047%=      5-min Rain = 0
KCO2 200044Z 02008KT 07/M04 A3028 RMK A01 T00671038  RH  047%=      5-min Rain = 0
KCO2 200045Z 02008KT 07/M04 A3028 RMK A01 T00671038  RH  047%=      5-min Rain = 0
KCO2 200046Z 02008KT 07/M04 A3028 RMK A01 T00671038  RH  047%=      5-min Rain = 0
KCO2 200047Z 02008KT 07/M04 A3028 RMK A01 T00671038  RH  047%=      5-min Rain = 0
KCO2 200048Z 01008KT 07/M04 A3028 RMK A01 T00671038  RH  047%=      5-min Rain = 0
KCO2 200049Z 01008KT 07/M04 A3028 RMK A01 T00661039  RH  047%=      5-min Rain = 0
KCO2 200050Z 01008KT 07/M04 A3028 RMK A01 T00651039  RH  047%=      5-min Rain = 0
KCO2 200051Z 01008KT 06/M04 A3028 RMK A01 T00641039  RH  048%=      5-min Rain = 0
KCO2 200052Z 01008KT 06/M04 A3028 RMK A01 T00631039  RH  048%=      5-min Rain = 0
KCO2 200053Z 01008KT 06/M04 A3028 RMK A01 T00631039  RH  048%=      5-min Rain = 0
KCO2 200054Z 01008KT 06/M04 A3028 RMK A01 T00631038  RH  048%=      5-min Rain = 0
KCO2 200055Z 01008KT 06/M04 A3028 RMK A01 T00631038  RH  048%=      5-min Rain = 0
KCO2 200056Z 01008KT 06/M04 A3028 RMK A01 T00621038  RH  048%=      5-min Rain = 0
KCO2 200057Z 01008KT 06/M04 A3028 RMK A01 T00621038  RH  048%=      5-min Rain = 0
KCO2 200058Z 01008KT 06/M04 A3028 RMK A01 T00621038  RH  049%=      5-min Rain = 0
KCO2 200059Z 01008KT 06/M04 A3028 RMK A01 T00621038  RH  049%=      5-min Rain = 0
KCO2 200100Z 01008KT 06/M04 A3028 RMK A01 T00621038  RH  049%=      5-min Rain = 0
KCO2 200101Z 01008KT 06/M04 A3028 RMK A01 T00611039  RH  049%=      5-min Rain = 0
KCO2 200102Z 01008KT 06/M04 A3028 RMK A01 T00611039  RH  049%=      5-min Rain = 0
KCO2 200103Z 02008KT 06/M04 A3028 RMK A01 T00601039  RH  049%=      5-min Rain = 0
KCO2 200104Z 02007KT 06/M04 A3028 RMK A01 T00611039  RH  049%=      5-min Rain = 0
KCO2 200105Z 01007KT 06/M04 A3028 RMK A01 T00601039  RH  049%=      5-min Rain = 0
KCO2 200106Z 01007KT 06/M04 A3028 RMK A01 T00601039  RH  049%=      5-min Rain = 0
KCO2 200107Z 01007KT 06/M04 A3028 RMK A01 T00591039  RH  049%=      5-min Rain = 0
KCO2 200108Z 02007KT 06/M04 A3028 RMK A01 T00591039  RH  049%=      5-min Rain = 0
KCO2 200109Z 02007KT 06/M04 A3028 RMK A01 T00581039  RH  050%=      5-min Rain = 0
KCO2 200110Z 02007KT 06/M04 A3028 RMK A01 T00581039  RH  050%=      5-min Rain = 0
KCO2 200111Z 02006KT 06/M04 A3028 RMK A01 T00571039  RH  050%=      5-min Rain = 0
KCO2 200112Z 02006KT 06/M04 A3029 RMK A01 T00561039  RH  050%=      5-min Rain = 0
KCO2 200113Z 02006KT 06/M04 A3029 RMK A01 T00551040  RH  051%=      5-min Rain = 0
KCO2 200114Z 03006KT 05/M04 A3029 RMK A01 T00541040  RH  051%=      5-min Rain = 0
KCO2 200115Z 03007KT 05/M04 A3029 RMK A01 T00531040  RH  051%=      5-min Rain = 0
KCO2 200116Z 04007KT 05/M04 A3029 RMK A01 T00531039  RH  051%=      5-min Rain = 0
KCO2 200117Z 04007KT 05/M04 A3029 RMK A01 T00521039  RH  052%=      5-min Rain = 0
KCO2 200118Z 04008KT 05/M04 A3029 RMK A01 T00511040  RH  052%=      5-min Rain = 0
KCO2 200119Z 04008KT 05/M04 A3029 RMK A01 T00501040  RH  052%=      5-min Rain = 0
KCO2 200120Z 05008KT 05/M04 A3029 RMK A01 T00491040  RH  052%=      5-min Rain = 0
KCO2 200121Z 05008KT 05/M04 A3029 RMK A01 T00491040  RH  053%=      5-min Rain = 0
KCO2 200122Z 05008KT 05/M04 A3029 RMK A01 T00481040  RH  053%=      5-min Rain = 0
KCO2 200123Z 05008KT 05/M04 A3029 RMK A01 T00481040  RH  053%=      5-min Rain = 0
KCO2 200124Z 05008KT 05/M04 A3029 RMK A01 T00481039  RH  053%=      5-min Rain = 0
KCO2 200125Z 05008KT 05/M04 A303 RMK A01 T00481039  RH  053%=      5-min Rain = 0
KCO2 200126Z 05008KT 05/M04 A303 RMK A01 T00481039  RH  053%=      5-min Rain = 0
KCO2 200127Z 05008KT 05/M04 A3029 RMK A01 T00481039  RH  053%=      5-min Rain = 0
KCO2 200128Z 05009KT 05/M04 A3029 RMK A01 T00481039  RH  053%=      5-min Rain = 0
KCO2 200129Z 05009KT 05/M04 A3029 RMK A01 T00481039  RH  053%=      5-min Rain = 0
KCO2 200130Z 05009KT 05/M04 A3029 RMK A01 T00501037  RH  053%=      5-min Rain = 0
KCO2 200131Z 05009KT 05/M04 A3029 RMK A01 T00521037  RH  053%=      5-min Rain = 0
KCO2 200132Z 05008KT 05/M04 A3029 RMK A01 T00531037  RH  052%=      5-min Rain = 0
KCO2 200133Z 04008KT 05/M04 A3029 RMK A01 T00531037  RH  052%=      5-min Rain = 0
KCO2 200134Z 04008KT 05/M04 A303 RMK A01 T00541037  RH  052%=      5-min Rain = 0
KCO2 200135Z 04008KT 05/M04 A303 RMK A01 T00541036  RH  052%=      5-min Rain = 0
KCO2 200136Z 04008KT 05/M04 A303 RMK A01 T00541036  RH  052%=      5-min Rain = 0
KCO2 200137Z 04009KT 05/M04 A303 RMK A01 T00541036  RH  052%=      5-min Rain = 0
KCO2 200138Z 05009KT 05/M04 A303 RMK A01 T00541036  RH  052%=      5-min Rain = 0
KCO2 200139Z 05009KT 05/M04 A303 RMK A01 T00531036  RH  053%=      5-min Rain = 0
KCO2 200140Z 05009KT 05/M04 A303 RMK A01 T00531036  RH  053%=      5-min Rain = 0
KCO2 200141Z 05009KT 05/M04 A303 RMK A01 T00531035  RH  053%=      5-min Rain = 0
KCO2 200142Z 05009KT 05/M04 A303 RMK A01 T00531035  RH  053%=      5-min Rain = 0
KCO2 200143Z 05008KT 05/M04 A303 RMK A01 T00531035  RH  053%=      5-min Rain = 0
KCO2 200144Z 05008KT 05/M04 A303 RMK A01 T00531035  RH  053%=      5-min Rain = 0
KCO2 200145Z 05008KT 05/M04 A303 RMK A01 T00541035  RH  053%=      5-min Rain = 0
KCO2 200146Z 05008KT 05/M04 A303 RMK A01 T00541035  RH  053%=      5-min Rain = 0
KCO2 200147Z 06008KT 05/M04 A303 RMK A01 T00531035  RH  053%=      5-min Rain = 0
KCO2 200148Z 06007KT 05/M03 A303 RMK A01 T00531034  RH  053%=      5-min Rain = 0
KCO2 200149Z 06007KT 05/M04 A303 RMK A01 T00521035  RH  054%=      5-min Rain = 0
KCO2 200150Z 06007KT 05/M04 A303 RMK A01 T00511035  RH  054%=      5-min Rain = 0
KCO2 200151Z 05007KT 05/M04 A303 RMK A01 T00511035  RH  054%=      5-min Rain = 0
KCO2 200152Z 06007KT 05/M03 A303 RMK A01 T00501034  RH  054%=      5-min Rain = 0
KCO2 200153Z 06007KT 05/M04 A303 RMK A01 T00491035  RH  055%=      5-min Rain = 0
KCO2 200154Z 06007KT 05/M03 A303 RMK A01 T00491034  RH  055%=      5-min Rain = 0
KCO2 200155Z 06007KT 05/M03 A303 RMK A01 T00481034  RH  055%=      5-min Rain = 0
KCO2 200156Z 06007KT 05/M03 A3031 RMK A01 T00481034  RH  055%=      5-min Rain = 0
KCO2 200157Z 06007KT 05/M03 A3031 RMK A01 T00471034  RH  056%=      5-min Rain = 0
KCO2 200158Z 06007KT 05/M03 A3031 RMK A01 T00471034  RH  056%=      5-min Rain = 0
KCO2 200159Z 06007KT 05/M03 A3031 RMK A01 T00461034  RH  056%=      5-min Rain = 0
KCO2 200200Z 06007KT 05/M03 A3031 RMK A01 T00451034  RH  056%=      5-min Rain = 0
KCO2 200201Z 06007KT 05/M03 A3031 RMK A01 T00451034  RH  056%=      5-min Rain = 0
KCO2 200202Z 06007KT 05/M03 A3031 RMK A01 T00451034  RH  057%=      5-min Rain = 0
KCO2 200203Z 06008KT 04/M03 A3031 RMK A01 T00441034  RH  057%=      5-min Rain = 0
KCO2 200204Z 06007KT 04/M03 A3031 RMK A01 T00441034  RH  057%=      5-min Rain = 0
KCO2 200205Z 06007KT 04/M03 A3031 RMK A01 T00431034  RH  057%=      5-min Rain = 0
KCO2 200206Z 06007KT 04/M03 A3031 RMK A01 T00431034  RH  057%=      5-min Rain = 0
KCO2 200207Z 06007KT 04/M03 A3031 RMK A01 T00431034  RH  057%=      5-min Rain = 0
KCO2 200208Z 06008KT 04/M03 A3031 RMK A01 T00421034  RH  058%=      5-min Rain = 0
KCO2 200209Z 06008KT 04/M03 A3031 RMK A01 T00421034  RH  058%=      5-min Rain = 0
KCO2 200210Z 06008KT 04/M03 A3031 RMK A01 T00411034  RH  058%=      5-min Rain = 0
KCO2 200211Z 06008KT 04/M04 A3031 RMK A01 T00401035  RH  058%=      5-min Rain = 0
KCO2 200212Z 07008KT 04/M04 A3031 RMK A01 T00391035  RH  059%=      5-min Rain = 0
KCO2 200213Z 07008KT 04/M04 A3031 RMK A01 T00381035  RH  059%=      5-min Rain = 0
KCO2 200214Z 07008KT 04/M03 A3031 RMK A01 T00381034  RH  059%=      5-min Rain = 0
KCO2 200215Z 07009KT 04/M03 A3031 RMK A01 T00371034  RH  060%=      5-min Rain = 0
KCO2 200216Z 07009KT 04/M03 A3031 RMK A01 T00371034  RH  060%=      5-min Rain = 0
KCO2 200217Z 07008KT 04/M03 A3031 RMK A01 T00371034  RH  060%=      5-min Rain = 0
KCO2 200218Z 06008KT 04/M03 A3031 RMK A01 T00381034  RH  060%=      5-min Rain = 0
KCO2 200219Z 06008KT 04/M03 A3031 RMK A01 T00381034  RH  059%=      5-min Rain = 0
KCO2 200220Z 06008KT 04/M03 A3031 RMK A01 T00391034  RH  059%=      5-min Rain = 0
KCO2 200221Z 06008KT 04/M03 A3031 RMK A01 T00391034  RH  059%=      5-min Rain = 0
KCO2 200222Z 06008KT 04/M03 A3031 RMK A01 T00401034  RH  059%=      5-min Rain = 0
KCO2 200223Z 06008KT 04/M03 A3031 RMK A01 T00401034  RH  058%=      5-min Rain = 0
KCO2 200224Z 06009KT 04/M03 A3031 RMK A01 T00411034  RH  058%=      5-min Rain = 0
KCO2 200225Z 06008KT 04/M03 A3031 RMK A01 T00411034  RH  058%=      5-min Rain = 0
KCO2 200226Z 06009KT 04/M03 A303 RMK A01 T00411034  RH  058%=      5-min Rain = 0
KCO2 200227Z 06008KT 04/M03 A303 RMK A01 T00411034  RH  058%=      5-min Rain = 0
KCO2 200228Z 06009KT 04/M03 A303 RMK A01 T00411034  RH  058%=      5-min Rain = 0
KCO2 200229Z 07008KT 04/M03 A303 RMK A01 T00421034  RH  058%=      5-min Rain = 0
KCO2 200230Z 07008KT 04/M03 A303 RMK A01 T00421034  RH  058%=      5-min Rain = 0
KCO2 200231Z 07009KT 04/M03 A303 RMK A01 T00421034  RH  058%=      5-min Rain = 0
KCO2 200232Z 07009KT 04/M03 A303 RMK A01 T00421034  RH  058%=      5-min Rain = 0
KCO2 200233Z 07008KT 04/M04 A303 RMK A01 T00411035  RH  058%=      5-min Rain = 0
KCO2 200234Z 07008KT 04/M04 A303 RMK A01 T00401035  RH  058%=      5-min Rain = 0
KCO2 200235Z 07008KT 04/M04 A303 RMK A01 T00391035  RH  059%=      5-min Rain = 0
KCO2 200236Z 07008KT 04/M04 A303 RMK A01 T00381035  RH  059%=      5-min Rain = 0
KCO2 200237Z 07008KT 04/M04 A303 RMK A01 T00371035  RH  059%=      5-min Rain = 0
KCO2 200238Z 08008KT 04/M04 A303 RMK A01 T00361035  RH  060%=      5-min Rain = 0
KCO2 200239Z 07008KT 04/M04 A303 RMK A01 T00351035  RH  060%=      5-min Rain = 0
KCO2 200240Z 07008KT 04/M03 A3029 RMK A01 T00361034  RH  060%=      5-min Rain = 0
KCO2 200241Z 07008KT 04/M03 A3029 RMK A01 T00351034  RH  060%=      5-min Rain = 0
KCO2 200242Z 07007KT 04/M03 A3029 RMK A01 T00361034  RH  060%=      5-min Rain = 0
KCO2 200243Z 07007KT 04/M04 A3029 RMK A01 T00361035  RH  060%=      5-min Rain = 0
KCO2 200244Z 08006KT 04/M03 A3029 RMK A01 T00361034  RH  060%=      5-min Rain = 0
KCO2 200245Z 07006KT 04/M04 A3029 RMK A01 T00351035  RH  060%=      5-min Rain = 0
KCO2 200246Z 08006KT 04/M03 A3029 RMK A01 T00351034  RH  061%=      5-min Rain = 0
KCO2 200247Z 08005KT 03/M03 A3029 RMK A01 T00341034  RH  061%=      5-min Rain = 0
KCO2 200248Z 08005KT 03/M04 A3029 RMK A01 T00331035  RH  061%=      5-min Rain = 0
KCO2 200249Z 09005KT 03/M04 A3029 RMK A01 T00331035  RH  061%=      5-min Rain = 0
KCO2 200250Z 09005KT 03/M04 A3029 RMK A01 T00311035  RH  062%=      5-min Rain = 0
KCO2 200251Z 09005KT 03/M04 A3029 RMK A01 T00301035  RH  062%=      5-min Rain = 0
KCO2 200252Z 09005KT 03/M04 A3029 RMK A01 T00291035  RH  063%=      5-min Rain = 0
KCO2 200253Z 09005KT 03/M04 A3029 RMK A01 T00281035  RH  063%=      5-min Rain = 0
KCO2 200254Z 09005KT 03/M04 A3029 RMK A01 T00261036  RH  064%=      5-min Rain = 0
KCO2 200255Z 08006KT 03/M04 A3029 RMK A01 T00251036  RH  064%=      5-min Rain = 0
KCO2 200256Z 08006KT 02/M04 A303 RMK A01 T00231036  RH  065%=      5-min Rain = 0
KCO2 200257Z 09006KT 02/M04 A303 RMK A01 T00231035  RH  065%=      5-min Rain = 0
KCO2 200258Z 09006KT 02/M04 A303 RMK A01 T00221035  RH  066%=      5-min Rain = 0
KCO2 200259Z 09007KT 02/M04 A303 RMK A01 T00211035  RH  066%=      5-min Rain = 0
KCO2 200300Z 09007KT 02/M04 A303 RMK A01 T00201036  RH  067%=      5-min Rain = 0
KCO2 200301Z 09007KT 02/M04 A303 RMK A01 T00191036  RH  067%=      5-min Rain = 0
KCO2 200302Z 09007KT 02/M04 A303 RMK A01 T00181035  RH  067%=      5-min Rain = 0
KCO2 200303Z 09007KT 02/M04 A303 RMK A01 T00181035  RH  068%=      5-min Rain = 0
KCO2 200304Z 09007KT 02/M03 A303 RMK A01 T00181034  RH  068%=      5-min Rain = 0
KCO2 200305Z 09006KT 02/M04 A303 RMK A01 T00181035  RH  068%=      5-min Rain = 0
KCO2 200306Z 10006KT 02/M04 A303 RMK A01 T00171035  RH  068%=      5-min Rain = 0
KCO2 200307Z 09006KT 02/M04 A303 RMK A01 T00161035  RH  069%=      5-min Rain = 0
KCO2 200308Z 09006KT 02/M04 A303 RMK A01 T00161035  RH  069%=      5-min Rain = 0
KCO2 200309Z 09006KT 02/M04 A303 RMK A01 T00151035  RH  069%=      5-min Rain = 0
KCO2 200310Z 09006KT 02/M04 A303 RMK A01 T00151035  RH  069%=      5-min Rain = 0
KCO2 200311Z 08006KT 02/M04 A303 RMK A01 T00161035  RH  069%=      5-min Rain = 0
KCO2 200312Z 08006KT 02/M04 A303 RMK A01 T00171035  RH  068%=      5-min Rain = 0
KCO2 200313Z 08006KT 02/M04 A303 RMK A01 T00181035  RH  068%=      5-min Rain = 0
KCO2 200314Z 08006KT 02/M04 A303 RMK A01 T00201035  RH  067%=      5-min Rain = 0
KCO2 200315Z 08007KT 02/M03 A3031 RMK A01 T00221034  RH  066%=      5-min Rain = 0
KCO2 200316Z 08007KT 02/M03 A3031 RMK A01 T00231034  RH  066%=      5-min Rain = 0
KCO2 200317Z 07007KT 02/M03 A3031 RMK A01 T00241034  RH  065%=      5-min Rain = 0
KCO2 200318Z 07007KT 02/M04 A3031 RMK A01 T00241035  RH  065%=      5-min Rain = 0
KCO2 200319Z 07007KT 03/M04 A3031 RMK A01 T00251035  RH  065%=      5-min Rain = 0
KCO2 200320Z 07007KT 02/M04 A3031 RMK A01 T00241035  RH  065%=      5-min Rain = 0
KCO2 200321Z 07007KT 02/M04 A3031 RMK A01 T00241035  RH  065%=      5-min Rain = 0
KCO2 200322Z 08007KT 02/M04 A3031 RMK A01 T00241035  RH  065%=      5-min Rain = 0
KCO2 200323Z 08007KT 02/M04 A3031 RMK A01 T00241035  RH  065%=      5-min Rain = 0
KCO2 200324Z 08007KT 02/M04 A3031 RMK A01 T00241035  RH  065%=      5-min Rain = 0
KCO2 200325Z 08008KT 02/M04 A3031 RMK A01 T00241035  RH  065%=      5-min Rain = 0
KCO2 200326Z 08007KT 03/M04 A3031 RMK A01 T00251035  RH  065%=      5-min Rain = 0
KCO2 200327Z 08007KT 03/M04 A3031 RMK A01 T00261035  RH  065%=      5-min Rain = 0
KCO2 200328Z 08008KT 03/M04 A3031 RMK A01 T00261035  RH  064%=      5-min Rain = 0
KCO2 200329Z 07008KT 03/M04 A3031 RMK A01 T00261035  RH  064%=      5-min Rain = 0
KCO2 200330Z 07008KT 03/M04 A3031 RMK A01 T00251035  RH  064%=      5-min Rain = 0
KCO2 200331Z 07007KT 02/M04 A3031 RMK A01 T00241035  RH  065%=      5-min Rain = 0
KCO2 200332Z 07007KT 02/M04 A3031 RMK A01 T00241035  RH  065%=      5-min Rain = 0
KCO2 200333Z 06006KT 02/M04 A3031 RMK A01 T00241035  RH  065%=      5-min Rain = 0
KCO2 200334Z 06006KT 02/M04 A3031 RMK A01 T00241035  RH  065%=      5-min Rain = 0
KCO2 200335Z 06006KT 02/M04 A3031 RMK A01 T00231036  RH  065%=      5-min Rain = 0
KCO2 200336Z 07006KT 02/M04 A3031 RMK A01 T00231036  RH  065%=      5-min Rain = 0
KCO2 200337Z 07006KT 02/M04 A3031 RMK A01 T00221036  RH  065%=      5-min Rain = 0
KCO2 200338Z 07006KT 02/M04 A3031 RMK A01 T00211037  RH  065%=      5-min Rain = 0
KCO2 200339Z 07006KT 02/M04 A3031 RMK A01 T00211037  RH  066%=      5-min Rain = 0
KCO2 200340Z 07006KT 02/M04 A3031 RMK A01 T00201037  RH  066%=      5-min Rain = 0
KCO2 200341Z 06006KT 02/M04 A3032 RMK A01 T00191037  RH  066%=      5-min Rain = 0
KCO2 200342Z 06006KT 02/M04 A3032 RMK A01 T00191037  RH  066%=      5-min Rain = 0
KCO2 200343Z 06005KT 02/M04 A3032 RMK A01 T00181037  RH  067%=      5-min Rain = 0
KCO2 200344Z 06005KT 02/M04 A3032 RMK A01 T00181037  RH  067%=      5-min Rain = 0
KCO2 200345Z 06006KT 02/M04 A3032 RMK A01 T00171038  RH  067%=      5-min Rain = 0
KCO2 200346Z 06005KT 02/M04 A3032 RMK A01 T00161038  RH  067%=      5-min Rain = 0
KCO2 200347Z 07005KT 02/M04 A3032 RMK A01 T00161038  RH  067%=      5-min Rain = 0
KCO2 200348Z 07005KT 02/M04 A3032 RMK A01 T00161038  RH  068%=      5-min Rain = 0
KCO2 200349Z 08004KT 02/M04 A3032 RMK A01 T00161037  RH  068%=      5-min Rain = 0
KCO2 200350Z 08004KT 02/M04 A3032 RMK A01 T00161037  RH  068%=      5-min Rain = 0
KCO2 200351Z 08003KT 02/M04 A3033 RMK A01 T00161036  RH  068%=      5-min Rain = 0
KCO2 200352Z 09003KT 02/M04 A3033 RMK A01 T00171036  RH  068%=      5-min Rain = 0
KCO2 200353Z 11002KT 02/M04 A3033 RMK A01 T00161037  RH  068%=      5-min Rain = 0
KCO2 200354Z 10002KT 02/M04 A3033 RMK A01 T00151037  RH  068%=      5-min Rain = 0
KCO2 200355Z 11002KT 01/M04 A3032 RMK A01 T00141037  RH  069%=      5-min Rain = 0
KCO2 200356Z 11003KT 01/M04 A3032 RMK A01 T00141036  RH  069%=      5-min Rain = 0
KCO2 200357Z 09003KT 02/M04 A3032 RMK A01 T00151035  RH  069%=      5-min Rain = 0
KCO2 200358Z 08003KT 02/M03 A3032 RMK A01 T00161034  RH  069%=      5-min Rain = 0
KCO2 200359Z 07003KT 02/M03 A3032 RMK A01 T00171034  RH  069%=      5-min Rain = 0
KCO2 200400Z 07004KT 02/M03 A3032 RMK A01 T00191034  RH  068%=      5-min Rain = 0
KCO2 200401Z 06004KT 02/M03 A3032 RMK A01 T00201034  RH  067%=      5-min Rain = 0
KCO2 200402Z 06004KT 02/M04 A3032 RMK A01 T00201035  RH  067%=      5-min Rain = 0
KCO2 200403Z 06005KT 02/M04 A3032 RMK A01 T00201036  RH  066%=      5-min Rain = 0
KCO2 200404Z 05005KT 02/M04 A3032 RMK A01 T00201036  RH  066%=      5-min Rain = 0
KCO2 200405Z 05005KT 02/M04 A3032 RMK A01 T00191037  RH  067%=      5-min Rain = 0
KCO2 200406Z 05005KT 02/M04 A3031 RMK A01 T00171037  RH  067%=      5-min Rain = 0
KCO2 200407Z 05005KT 02/M04 A3031 RMK A01 T00161037  RH  067%=      5-min Rain = 0
KCO2 200408Z 05005KT 02/M04 A3031 RMK A01 T00151038  RH  068%=      5-min Rain = 0
KCO2 200409Z 05005KT 01/M04 A3031 RMK A01 T00141038  RH  068%=      5-min Rain = 0
KCO2 200410Z 06005KT 01/M04 A3031 RMK A01 T00131038  RH  069%=      5-min Rain = 0
KCO2 200411Z 06005KT 01/M04 A3031 RMK A01 T00131037  RH  069%=      5-min Rain = 0
KCO2 200412Z 06005KT 01/M04 A3031 RMK A01 T00141036  RH  069%=      5-min Rain = 0
KCO2 200413Z 07005KT 02/M04 A3031 RMK A01 T00151036  RH  069%=      5-min Rain = 0
KCO2 200414Z 06006KT 02/M04 A3031 RMK A01 T00161036  RH  068%=      5-min Rain = 0
KCO2 200415Z 07005KT 02/M04 A3031 RMK A01 T00161036  RH  068%=      5-min Rain = 0
KCO2 200416Z 07005KT 02/M04 A3032 RMK A01 T00161036  RH  068%=      5-min Rain = 0
KCO2 200417Z 07005KT 02/M04 A3032 RMK A01 T00151037  RH  068%=      5-min Rain = 0
KCO2 200418Z 07005KT 02/M04 A3032 RMK A01 T00151037  RH  068%=      5-min Rain = 0
KCO2 200419Z 07005KT 02/M04 A3032 RMK A01 T00151036  RH  069%=      5-min Rain = 0
KCO2 200420Z 07004KT 02/M04 A3032 RMK A01 T00151036  RH  069%=      5-min Rain = 0
KCO2 200421Z 07004KT 02/M04 A3032 RMK A01 T00151037  RH  068%=      5-min Rain = 0
KCO2 200422Z 07004KT 02/M04 A3032 RMK A01 T00161036  RH  068%=      5-min Rain = 0
KCO2 200423Z 07004KT 02/M04 A3032 RMK A01 T00171036  RH  068%=      5-min Rain = 0
KCO2 200424Z 07003KT 02/M04 A3033 RMK A01 T00181036  RH  067%=      5-min Rain = 0
KCO2 200425Z 07003KT 02/M04 A3033 RMK A01 T00181036  RH  067%=      5-min Rain = 0
KCO2 200426Z 07003KT 02/M04 A3033 RMK A01 T00181037  RH  067%=      5-min Rain = 0
KCO2 200427Z 06002KT 02/M04 A3033 RMK A01 T00181037  RH  067%=      5-min Rain = 0
KCO2 200428Z 06002KT 02/M04 A3033 RMK A01 T00181036  RH  067%=      5-min Rain = 0
KCO2 200429Z 06001KT 02/M04 A3034 RMK A01 T00191036  RH  067%=      5-min Rain = 0
KCO2 200430Z 06000KT 01/M04 A3034 RMK A01 T00131041  RH  067%=      5-min Rain = 0
KCO2 200431Z 00000KT 01/M04 A3034 RMK A01 T00081042  RH  069%=      5-min Rain = 0
KCO2 200432Z 14000KT 01/M04 A3033 RMK A01 T00071039  RH  071%=      5-min Rain = 0
KCO2 200433Z 15002KT 01/M04 A3033 RMK A01 T00081038  RH  072%=      5-min Rain = 0
KCO2 200434Z 18003KT 01/M04 A3032 RMK A01 T00071039  RH  071%=      5-min Rain = 0
KCO2 200435Z 19005KT 00/M04 A3032 RMK A01 T00021042  RH  072%=      5-min Rain = 0
KCO2 200436Z 19004KT M00/M04 A3032 RMK A01 T10031042  RH  075%=      5-min Rain = 0
KCO2 200437Z 17004KT M00/M04 A3032 RMK A01 T10041040  RH  077%=      5-min Rain = 0
KCO2 200438Z 16004KT M00/M04 A3032 RMK A01 T10041038  RH  078%=      5-min Rain = 0
KCO2 200439Z 16004KT M00/M04 A3032 RMK A01 T10031037  RH  078%=      5-min Rain = 0
KCO2 200440Z 16004KT M00/M04 A3032 RMK A01 T10031037  RH  078%=      5-min Rain = 0
KCO2 200441Z 16003KT M00/M04 A3032 RMK A01 T10031036  RH  078%=      5-min Rain = 0
KCO2 200442Z 15003KT M00/M04 A3032 RMK A01 T10031036  RH  078%=      5-min Rain = 0
KCO2 200443Z 14003KT M00/M04 A3032 RMK A01 T10031035  RH  079%=      5-min Rain = 0
KCO2 200444Z 15003KT M00/M03 A3031 RMK A01 T10011034  RH  078%=      5-min Rain = 0
KCO2 200445Z 15003KT 00/03 A3031 RMK A01 T00-00-34  RH  078%=      5-min Rain = 0
KCO2 200446Z 16003KT 00/M04 A3031 RMK A01 T00011035  RH  077%=      5-min Rain = 0
KCO2 200447Z 18005KT 00/04 A3031 RMK A01 T00000-35  RH  077%=      5-min Rain = 0
KCO2 200448Z 18005KT 00/04 A3031 RMK A01 T00-00-36  RH  077%=      5-min Rain = 0
KCO2 200449Z 17005KT 00/04 A3031 RMK A01 T00000-36  RH  077%=      5-min Rain = 0
KCO2 200450Z 16005KT 00/04 A3031 RMK A01 T00-00-37  RH  076%=      5-min Rain = 0
KCO2 200451Z 17004KT 00/04 A3031 RMK A01 T00-00-36  RH  077%=      5-min Rain = 0
KCO2 200452Z 18004KT 00/M04 A3031 RMK A01 T00021035  RH  076%=      5-min Rain = 0
KCO2 200453Z 17003KT 00/M04 A3031 RMK A01 T00021035  RH  076%=      5-min Rain = 0
KCO2 200454Z 16003KT 00/M04 A3031 RMK A01 T00031035  RH  076%=      5-min Rain = 0
KCO2 200455Z 16003KT 00/M04 A3031 RMK A01 T00031035  RH  076%=      5-min Rain = 0
KCO2 200456Z 17004KT 01/M03 A3031 RMK A01 T00051034  RH  076%=      5-min Rain = 0
KCO2 200457Z 17004KT 01/M03 A3031 RMK A01 T00071033  RH  075%=      5-min Rain = 0
KCO2 200458Z 17004KT 01/M03 A3031 RMK A01 T00091033  RH  074%=      5-min Rain = 0
KCO2 200459Z 18004KT 01/M03 A3031 RMK A01 T00091034  RH  073%=      5-min Rain = 0
KCO2 200500Z 18004KT 01/M03 A3031 RMK A01 T00091034  RH  073%=      5-min Rain = 0
KCO2 200501Z 18004KT 01/M03 A3031 RMK A01 T00091034  RH  073%=      5-min Rain = 0
KCO2 200502Z 18004KT 01/M03 A3031 RMK A01 T00091034  RH  073%=      5-min Rain = 0
KCO2 200503Z 18004KT 01/M04 A3031 RMK A01 T00081035  RH  073%=      5-min Rain = 0
KCO2 200504Z 18004KT 01/M04 A3031 RMK A01 T00071036  RH  073%=      5-min Rain = 0
KCO2 200505Z 17003KT 01/M04 A3031 RMK A01 T00051036  RH  074%=      5-min Rain = 0
KCO2 200506Z 17003KT 00/M04 A3032 RMK A01 T00041036  RH  074%=      5-min Rain = 0
KCO2 200507Z 18002KT 00/M04 A3032 RMK A01 T00031036  RH  075%=      5-min Rain = 0
KCO2 200508Z 19002KT 00/M04 A3033 RMK A01 T00031036  RH  075%=      5-min Rain = 0
KCO2 200509Z 18002KT 00/M04 A3033 RMK A01 T00031036  RH  075%=      5-min Rain = 0
KCO2 200510Z 17003KT 00/M04 A3032 RMK A01 T00021036  RH  075%=      5-min Rain = 0
KCO2 200511Z 17003KT 00/M04 A3032 RMK A01 T00021035  RH  076%=      5-min Rain = 0
KCO2 200512Z 17003KT 00/M04 A3032 RMK A01 T00031035  RH  076%=      5-min Rain = 0
KCO2 200513Z 17003KT 01/M03 A3032 RMK A01 T00051034  RH  075%=      5-min Rain = 0
KCO2 200514Z 17003KT 01/M03 A3032 RMK A01 T00061034  RH  075%=      5-min Rain = 0
KCO2 200515Z 17002KT 01/M03 A3032 RMK A01 T00071034  RH  074%=      5-min Rain = 0
KCO2 200516Z 17002KT 01/M03 A3033 RMK A01 T00071034  RH  074%=      5-min Rain = 0
KCO2 200517Z 17001KT 01/M04 A3033 RMK A01 T00071035  RH  074%=      5-min Rain = 0
KCO2 200518Z 17001KT 01/M04 A3033 RMK A01 T00071036  RH  073%=      5-min Rain = 0
KCO2 200519Z 17001KT 01/M04 A3033 RMK A01 T00061036  RH  074%=      5-min Rain = 0
KCO2 200520Z 17001KT 01/M04 A3033 RMK A01 T00051036  RH  074%=      5-min Rain = 0
KCO2 200521Z 17001KT 01/M04 A3033 RMK A01 T00051035  RH  074%=      5-min Rain = 0
KCO2 200522Z 17001KT 01/M04 A3033 RMK A01 T00051036  RH  074%=      5-min Rain = 0
KCO2 200523Z 17001KT 00/M04 A3033 RMK A01 T00041038  RH  073%=      5-min Rain = 0
KCO2 200524Z 17002KT 00/M04 A3033 RMK A01 T00031037  RH  075%=      5-min Rain = 0
KCO2 200525Z 17002KT 00/M04 A3033 RMK A01 T00041035  RH  075%=      5-min Rain = 0
KCO2 200526Z 18002KT 01/M03 A3033 RMK A01 T00051034  RH  075%=      5-min Rain = 0
KCO2 200527Z 16002KT 01/M03 A3033 RMK A01 T00061034  RH  074%=      5-min Rain = 0
KCO2 200528Z 17002KT 01/M03 A3033 RMK A01 T00071034  RH  074%=      5-min Rain = 0
KCO2 200529Z 17002KT 01/M03 A3033 RMK A01 T00081034  RH  073%=      5-min Rain = 0
KCO2 200530Z 15001KT 01/M03 A3033 RMK A01 T00091034  RH  073%=      5-min Rain = 0
KCO2 200531Z 14001KT 01/M03 A3033 RMK A01 T00091034  RH  073%=      5-min Rain = 0
KCO2 200532Z 13001KT 01/M04 A3033 RMK A01 T00091035  RH  072%=      5-min Rain = 0
KCO2 200533Z 12001KT 01/M04 A3033 RMK A01 T00091036  RH  072%=      5-min Rain = 0
KCO2 200534Z 15001KT 01/M03 A3033 RMK A01 T00101033  RH  073%=      5-min Rain = 0
KCO2 200535Z 15001KT 01/M03 A3033 RMK A01 T00121030  RH  073%=      5-min Rain = 0
KCO2 200536Z 16000KT 01/M03 A3034 RMK A01 T00141031  RH  072%=      5-min Rain = 0
KCO2 200537Z 16000KT 01/M04 A3034 RMK A01 T00141035  RH  070%=      5-min Rain = 0
KCO2 200538Z 17001KT 01/M04 A3033 RMK A01 T00121036  RH  071%=      5-min Rain = 0
KCO2 200539Z 15001KT 01/M03 A3033 RMK A01 T00111034  RH  072%=      5-min Rain = 0
KCO2 200540Z 14001KT 01/M03 A3033 RMK A01 T00111033  RH  072%=      5-min Rain = 0
KCO2 200541Z 15002KT 01/M03 A3032 RMK A01 T00101033  RH  073%=      5-min Rain = 0
KCO2 200542Z 16002KT 01/M03 A3032 RMK A01 T00111032  RH  073%=      5-min Rain = 0
KCO2 200543Z 16002KT 01/M03 A3032 RMK A01 T00121031  RH  073%=      5-min Rain = 0
KCO2 200544Z 15002KT 01/M03 A3033 RMK A01 T00121032  RH  072%=      5-min Rain = 0
KCO2 200545Z 16002KT 01/M03 A3033 RMK A01 T00121033  RH  072%=      5-min Rain = 0
KCO2 200546Z 16001KT 01/M03 A3033 RMK A01 T00101034  RH  072%=      5-min Rain = 0
KCO2 200547Z 15001KT 01/M03 A3034 RMK A01 T00101034  RH  073%=      5-min Rain = 0
KCO2 200548Z 14001KT 01/M04 A3033 RMK A01 T00091035  RH  072%=      5-min Rain = 0
KCO2 200549Z 15001KT 01/M04 A3033 RMK A01 T00071036  RH  073%=      5-min Rain = 0
KCO2 200550Z 15001KT 01/M04 A3033 RMK A01 T00071035  RH  073%=      5-min Rain = 0
KCO2 200551Z 15001KT 00/M04 A3034 RMK A01 T00041038  RH  073%=      5-min Rain = 0
KCO2 200552Z 15000KT 00/M04 A3034 RMK A01 T00021039  RH  074%=      5-min Rain = 0
KCO2 200553Z 15000KT M00/M04 A3034 RMK A01 T10011040  RH  075%=      5-min Rain = 0
KCO2 200554Z 15001KT M00/M04 A3034 RMK A01 T10031041  RH  076%=      5-min Rain = 0
KCO2 200555Z 15001KT M01/M04 A3034 RMK A01 T10051041  RH  077%=      5-min Rain = 0
KCO2 200556Z 16001KT M01/M04 A3034 RMK A01 T10061040  RH  078%=      5-min Rain = 0
KCO2 200557Z 15001KT M01/M04 A3034 RMK A01 T10061039  RH  079%=      5-min Rain = 0
KCO2 200558Z 15001KT M01/M04 A3034 RMK A01 T10061038  RH  079%=      5-min Rain = 0
KCO2 200559Z 15001KT M01/M04 A3034 RMK A01 T10051037  RH  079%=      5-min Rain = 0

Page generated in 0.123 seconds.